<?xml version="1.0" encoding="UTF-8" standalone="no" ?>
<gpx xmlns="http://www.topografix.com/GPX/1/1" xmlns:xsi="http://www.w3.org/2001/XMLSchema-instance" xsi:schemaLocation="http://www.topografix.com/GPX/1/1 http://www.topografix.com/GPX/1/1/gpx.xsd" version="1.1" creator="VisuGPX - https://www.visugpx.com">
  <metadata>
    <name>exp_19 déc. 2025 à 12-53-38.gpx</name>
    <desc><![CDATA[Réserve biologique de la forêt de Rambervillers.Départ des jardins de Gondremer, passage à la roche de l'ours et au bas des roches de la Mollière. Visite de la chapelle de mon repos (ouverte et fontaine à prochimité).Retour par la vallée du ruisseau de Chilimont.Pas de difficultés particulières hormis la traversée du Chilimont par un sentier qui a disparu.]]></desc>
  </metadata>
  <trk>
    <name><![CDATA[19 déc. 2025 à 12:53:38]]></name>
    <cmt><![CDATA[19 déc. 2025 à 12:53:38]]></cmt>
    <trkseg>
      <trkpt lat="48.28981" lon="6.72676">
        <ele>359</ele>
        <time>2025-12-19T11:53:39Z</time>
      </trkpt>
      <trkpt lat="48.28981" lon="6.72676">
        <ele>359</ele>
        <time>2025-12-19T11:53:40Z</time>
      </trkpt>
      <trkpt lat="48.28989" lon="6.72673">
        <ele>359</ele>
        <time>2025-12-19T11:54:08Z</time>
      </trkpt>
      <trkpt lat="48.28982" lon="6.72668">
        <ele>359</ele>
        <time>2025-12-19T11:54:17Z</time>
      </trkpt>
      <trkpt lat="48.28979" lon="6.72677">
        <ele>359</ele>
        <time>2025-12-19T11:54:49Z</time>
      </trkpt>
      <trkpt lat="48.28972" lon="6.72676">
        <ele>359</ele>
        <time>2025-12-19T11:54:52Z</time>
      </trkpt>
      <trkpt lat="48.28967" lon="6.7267">
        <ele>359</ele>
        <time>2025-12-19T11:54:56Z</time>
      </trkpt>
      <trkpt lat="48.28963" lon="6.72671">
        <ele>360</ele>
        <time>2025-12-19T11:55:03Z</time>
      </trkpt>
      <trkpt lat="48.28959" lon="6.72674">
        <ele>360</ele>
        <time>2025-12-19T11:55:08Z</time>
      </trkpt>
      <trkpt lat="48.28953" lon="6.72675">
        <ele>360</ele>
        <time>2025-12-19T11:55:12Z</time>
      </trkpt>
      <trkpt lat="48.28948" lon="6.72678">
        <ele>360</ele>
        <time>2025-12-19T11:55:16Z</time>
      </trkpt>
      <trkpt lat="48.28946" lon="6.72684">
        <ele>361</ele>
        <time>2025-12-19T11:55:19Z</time>
      </trkpt>
      <trkpt lat="48.28942" lon="6.72687">
        <ele>361</ele>
        <time>2025-12-19T11:55:24Z</time>
      </trkpt>
      <trkpt lat="48.28941" lon="6.72697">
        <ele>362</ele>
        <time>2025-12-19T11:55:30Z</time>
      </trkpt>
      <trkpt lat="48.28941" lon="6.72704">
        <ele>362</ele>
        <time>2025-12-19T11:55:33Z</time>
      </trkpt>
      <trkpt lat="48.28938" lon="6.72718">
        <ele>362</ele>
        <time>2025-12-19T11:56:13Z</time>
      </trkpt>
      <trkpt lat="48.28938" lon="6.72718">
        <ele>362</ele>
        <time>2025-12-19T11:56:27Z</time>
      </trkpt>
      <trkpt lat="48.28943" lon="6.72708">
        <ele>362</ele>
        <time>2025-12-19T11:56:42Z</time>
      </trkpt>
      <trkpt lat="48.28938" lon="6.72709">
        <ele>362</ele>
        <time>2025-12-19T11:57:07Z</time>
      </trkpt>
      <trkpt lat="48.28942" lon="6.72707">
        <ele>362</ele>
        <time>2025-12-19T11:57:44Z</time>
      </trkpt>
      <trkpt lat="48.28943" lon="6.72703">
        <ele>362</ele>
        <time>2025-12-19T11:57:47Z</time>
      </trkpt>
      <trkpt lat="48.28933" lon="6.72708">
        <ele>363</ele>
        <time>2025-12-19T11:58:06Z</time>
      </trkpt>
      <trkpt lat="48.28929" lon="6.72714">
        <ele>363</ele>
        <time>2025-12-19T11:58:09Z</time>
      </trkpt>
      <trkpt lat="48.28927" lon="6.7272">
        <ele>363</ele>
        <time>2025-12-19T11:58:12Z</time>
      </trkpt>
      <trkpt lat="48.28922" lon="6.72723">
        <ele>363</ele>
        <time>2025-12-19T11:58:15Z</time>
      </trkpt>
      <trkpt lat="48.28918" lon="6.72727">
        <ele>364</ele>
        <time>2025-12-19T11:58:18Z</time>
      </trkpt>
      <trkpt lat="48.28914" lon="6.72738">
        <ele>364</ele>
        <time>2025-12-19T11:58:24Z</time>
      </trkpt>
      <trkpt lat="48.28911" lon="6.72743">
        <ele>365</ele>
        <time>2025-12-19T11:58:28Z</time>
      </trkpt>
      <trkpt lat="48.28898" lon="6.72774">
        <ele>367</ele>
        <time>2025-12-19T11:58:45Z</time>
      </trkpt>
      <trkpt lat="48.28894" lon="6.72777">
        <ele>367</ele>
        <time>2025-12-19T11:58:49Z</time>
      </trkpt>
      <trkpt lat="48.28891" lon="6.72783">
        <ele>367</ele>
        <time>2025-12-19T11:58:53Z</time>
      </trkpt>
      <trkpt lat="48.28886" lon="6.72786">
        <ele>368</ele>
        <time>2025-12-19T11:58:58Z</time>
      </trkpt>
      <trkpt lat="48.28881" lon="6.72785">
        <ele>369</ele>
        <time>2025-12-19T11:59:03Z</time>
      </trkpt>
      <trkpt lat="48.28859" lon="6.72812">
        <ele>371</ele>
        <time>2025-12-19T11:59:25Z</time>
      </trkpt>
      <trkpt lat="48.28853" lon="6.72812">
        <ele>372</ele>
        <time>2025-12-19T11:59:29Z</time>
      </trkpt>
      <trkpt lat="48.28845" lon="6.72821">
        <ele>373</ele>
        <time>2025-12-19T11:59:37Z</time>
      </trkpt>
      <trkpt lat="48.28843" lon="6.72827">
        <ele>373</ele>
        <time>2025-12-19T11:59:40Z</time>
      </trkpt>
      <trkpt lat="48.28835" lon="6.72836">
        <ele>374</ele>
        <time>2025-12-19T11:59:46Z</time>
      </trkpt>
      <trkpt lat="48.28829" lon="6.72848">
        <ele>375</ele>
        <time>2025-12-19T11:59:54Z</time>
      </trkpt>
      <trkpt lat="48.28829" lon="6.72855">
        <ele>375</ele>
        <time>2025-12-19T11:59:57Z</time>
      </trkpt>
      <trkpt lat="48.2883" lon="6.72861">
        <ele>376</ele>
        <time>2025-12-19T12:00:02Z</time>
      </trkpt>
      <trkpt lat="48.28828" lon="6.72868">
        <ele>376</ele>
        <time>2025-12-19T12:00:05Z</time>
      </trkpt>
      <trkpt lat="48.28824" lon="6.72898">
        <ele>378</ele>
        <time>2025-12-19T12:00:21Z</time>
      </trkpt>
      <trkpt lat="48.28818" lon="6.7291">
        <ele>379</ele>
        <time>2025-12-19T12:00:29Z</time>
      </trkpt>
      <trkpt lat="48.28817" lon="6.72919">
        <ele>379</ele>
        <time>2025-12-19T12:00:36Z</time>
      </trkpt>
      <trkpt lat="48.28815" lon="6.72925">
        <ele>379</ele>
        <time>2025-12-19T12:00:39Z</time>
      </trkpt>
      <trkpt lat="48.2881" lon="6.72934">
        <ele>379</ele>
        <time>2025-12-19T12:00:46Z</time>
      </trkpt>
      <trkpt lat="48.28797" lon="6.72942">
        <ele>377</ele>
        <time>2025-12-19T12:00:56Z</time>
      </trkpt>
      <trkpt lat="48.28792" lon="6.72944">
        <ele>376</ele>
        <time>2025-12-19T12:00:59Z</time>
      </trkpt>
      <trkpt lat="48.28787" lon="6.72943">
        <ele>376</ele>
        <time>2025-12-19T12:01:02Z</time>
      </trkpt>
      <trkpt lat="48.28784" lon="6.72947">
        <ele>376</ele>
        <time>2025-12-19T12:01:05Z</time>
      </trkpt>
      <trkpt lat="48.28766" lon="6.72956">
        <ele>375</ele>
        <time>2025-12-19T12:01:17Z</time>
      </trkpt>
      <trkpt lat="48.28758" lon="6.72966">
        <ele>374</ele>
        <time>2025-12-19T12:01:24Z</time>
      </trkpt>
      <trkpt lat="48.28756" lon="6.72972">
        <ele>374</ele>
        <time>2025-12-19T12:01:27Z</time>
      </trkpt>
      <trkpt lat="48.28755" lon="6.72978">
        <ele>374</ele>
        <time>2025-12-19T12:01:34Z</time>
      </trkpt>
      <trkpt lat="48.28758" lon="6.72993">
        <ele>375</ele>
        <time>2025-12-19T12:01:43Z</time>
      </trkpt>
      <trkpt lat="48.28763" lon="6.73005">
        <ele>375</ele>
        <time>2025-12-19T12:01:49Z</time>
      </trkpt>
      <trkpt lat="48.28768" lon="6.73009">
        <ele>375</ele>
        <time>2025-12-19T12:01:52Z</time>
      </trkpt>
      <trkpt lat="48.28772" lon="6.7301">
        <ele>375</ele>
        <time>2025-12-19T12:01:55Z</time>
      </trkpt>
      <trkpt lat="48.28781" lon="6.73017">
        <ele>375</ele>
        <time>2025-12-19T12:02:01Z</time>
      </trkpt>
      <trkpt lat="48.28785" lon="6.7302">
        <ele>375</ele>
        <time>2025-12-19T12:02:05Z</time>
      </trkpt>
      <trkpt lat="48.28795" lon="6.73037">
        <ele>375</ele>
        <time>2025-12-19T12:02:20Z</time>
      </trkpt>
      <trkpt lat="48.28798" lon="6.73048">
        <ele>376</ele>
        <time>2025-12-19T12:02:28Z</time>
      </trkpt>
      <trkpt lat="48.28795" lon="6.73057">
        <ele>376</ele>
        <time>2025-12-19T12:02:29Z</time>
      </trkpt>
      <trkpt lat="48.288" lon="6.73061">
        <ele>376</ele>
        <time>2025-12-19T12:02:34Z</time>
      </trkpt>
      <trkpt lat="48.288" lon="6.73067">
        <ele>376</ele>
        <time>2025-12-19T12:02:37Z</time>
      </trkpt>
      <trkpt lat="48.28797" lon="6.7309">
        <ele>376</ele>
        <time>2025-12-19T12:02:48Z</time>
      </trkpt>
      <trkpt lat="48.28794" lon="6.73095">
        <ele>376</ele>
        <time>2025-12-19T12:02:51Z</time>
      </trkpt>
      <trkpt lat="48.28787" lon="6.73123">
        <ele>377</ele>
        <time>2025-12-19T12:03:05Z</time>
      </trkpt>
      <trkpt lat="48.28787" lon="6.73132">
        <ele>377</ele>
        <time>2025-12-19T12:03:08Z</time>
      </trkpt>
      <trkpt lat="48.28775" lon="6.7318">
        <ele>378</ele>
        <time>2025-12-19T12:03:34Z</time>
      </trkpt>
      <trkpt lat="48.28766" lon="6.73199">
        <ele>379</ele>
        <time>2025-12-19T12:03:48Z</time>
      </trkpt>
      <trkpt lat="48.28756" lon="6.73223">
        <ele>380</ele>
        <time>2025-12-19T12:04:01Z</time>
      </trkpt>
      <trkpt lat="48.28743" lon="6.73243">
        <ele>380</ele>
        <time>2025-12-19T12:04:16Z</time>
      </trkpt>
      <trkpt lat="48.28738" lon="6.73247">
        <ele>380</ele>
        <time>2025-12-19T12:04:20Z</time>
      </trkpt>
      <trkpt lat="48.28732" lon="6.73252">
        <ele>380</ele>
        <time>2025-12-19T12:04:30Z</time>
      </trkpt>
      <trkpt lat="48.28719" lon="6.7326">
        <ele>379</ele>
        <time>2025-12-19T12:04:42Z</time>
      </trkpt>
      <trkpt lat="48.28701" lon="6.73284">
        <ele>379</ele>
        <time>2025-12-19T12:04:57Z</time>
      </trkpt>
      <trkpt lat="48.287" lon="6.7329">
        <ele>379</ele>
        <time>2025-12-19T12:05:01Z</time>
      </trkpt>
      <trkpt lat="48.28698" lon="6.73297">
        <ele>379</ele>
        <time>2025-12-19T12:05:05Z</time>
      </trkpt>
      <trkpt lat="48.28697" lon="6.73304">
        <ele>379</ele>
        <time>2025-12-19T12:05:08Z</time>
      </trkpt>
      <trkpt lat="48.28698" lon="6.73312">
        <ele>379</ele>
        <time>2025-12-19T12:05:11Z</time>
      </trkpt>
      <trkpt lat="48.28707" lon="6.73316">
        <ele>379</ele>
        <time>2025-12-19T12:05:16Z</time>
      </trkpt>
      <trkpt lat="48.28717" lon="6.73311">
        <ele>378</ele>
        <time>2025-12-19T12:05:22Z</time>
      </trkpt>
      <trkpt lat="48.28721" lon="6.73313">
        <ele>378</ele>
        <time>2025-12-19T12:05:25Z</time>
      </trkpt>
      <trkpt lat="48.28726" lon="6.73313">
        <ele>378</ele>
        <time>2025-12-19T12:05:28Z</time>
      </trkpt>
      <trkpt lat="48.28731" lon="6.73318">
        <ele>378</ele>
        <time>2025-12-19T12:05:31Z</time>
      </trkpt>
      <trkpt lat="48.28735" lon="6.73319">
        <ele>378</ele>
        <time>2025-12-19T12:05:34Z</time>
      </trkpt>
      <trkpt lat="48.28742" lon="6.73332">
        <ele>378</ele>
        <time>2025-12-19T12:05:40Z</time>
      </trkpt>
      <trkpt lat="48.28743" lon="6.73338">
        <ele>378</ele>
        <time>2025-12-19T12:05:44Z</time>
      </trkpt>
      <trkpt lat="48.28748" lon="6.73342">
        <ele>378</ele>
        <time>2025-12-19T12:05:48Z</time>
      </trkpt>
      <trkpt lat="48.28758" lon="6.7337">
        <ele>376</ele>
        <time>2025-12-19T12:06:03Z</time>
      </trkpt>
      <trkpt lat="48.28759" lon="6.73377">
        <ele>375</ele>
        <time>2025-12-19T12:06:06Z</time>
      </trkpt>
      <trkpt lat="48.28757" lon="6.73385">
        <ele>374</ele>
        <time>2025-12-19T12:06:11Z</time>
      </trkpt>
      <trkpt lat="48.28761" lon="6.73412">
        <ele>373</ele>
        <time>2025-12-19T12:06:23Z</time>
      </trkpt>
      <trkpt lat="48.28764" lon="6.73418">
        <ele>373</ele>
        <time>2025-12-19T12:06:26Z</time>
      </trkpt>
      <trkpt lat="48.28763" lon="6.73432">
        <ele>373</ele>
        <time>2025-12-19T12:06:33Z</time>
      </trkpt>
      <trkpt lat="48.28763" lon="6.7344">
        <ele>373</ele>
        <time>2025-12-19T12:06:40Z</time>
      </trkpt>
      <trkpt lat="48.28766" lon="6.73446">
        <ele>373</ele>
        <time>2025-12-19T12:06:43Z</time>
      </trkpt>
      <trkpt lat="48.28765" lon="6.73453">
        <ele>373</ele>
        <time>2025-12-19T12:06:47Z</time>
      </trkpt>
      <trkpt lat="48.28766" lon="6.73459">
        <ele>373</ele>
        <time>2025-12-19T12:06:51Z</time>
      </trkpt>
      <trkpt lat="48.28762" lon="6.73465">
        <ele>373</ele>
        <time>2025-12-19T12:06:54Z</time>
      </trkpt>
      <trkpt lat="48.28763" lon="6.7349">
        <ele>373</ele>
        <time>2025-12-19T12:07:03Z</time>
      </trkpt>
      <trkpt lat="48.28763" lon="6.73497">
        <ele>373</ele>
        <time>2025-12-19T12:07:06Z</time>
      </trkpt>
      <trkpt lat="48.28765" lon="6.73519">
        <ele>375</ele>
        <time>2025-12-19T12:07:21Z</time>
      </trkpt>
      <trkpt lat="48.28765" lon="6.73526">
        <ele>375</ele>
        <time>2025-12-19T12:07:24Z</time>
      </trkpt>
      <trkpt lat="48.28766" lon="6.73556">
        <ele>375</ele>
        <time>2025-12-19T12:07:40Z</time>
      </trkpt>
      <trkpt lat="48.28765" lon="6.73578">
        <ele>377</ele>
        <time>2025-12-19T12:07:53Z</time>
      </trkpt>
      <trkpt lat="48.28765" lon="6.73585">
        <ele>377</ele>
        <time>2025-12-19T12:08:03Z</time>
      </trkpt>
      <trkpt lat="48.28765" lon="6.7359">
        <ele>377</ele>
        <time>2025-12-19T12:08:56Z</time>
      </trkpt>
      <trkpt lat="48.28765" lon="6.73596">
        <ele>377</ele>
        <time>2025-12-19T12:09:00Z</time>
      </trkpt>
      <trkpt lat="48.28766" lon="6.73603">
        <ele>377</ele>
        <time>2025-12-19T12:09:05Z</time>
      </trkpt>
      <trkpt lat="48.28765" lon="6.73617">
        <ele>377</ele>
        <time>2025-12-19T12:09:48Z</time>
      </trkpt>
      <trkpt lat="48.28765" lon="6.73663">
        <ele>379</ele>
        <time>2025-12-19T12:10:11Z</time>
      </trkpt>
      <trkpt lat="48.28764" lon="6.73668">
        <ele>379</ele>
        <time>2025-12-19T12:10:38Z</time>
      </trkpt>
      <trkpt lat="48.28761" lon="6.73696">
        <ele>380</ele>
        <time>2025-12-19T12:11:10Z</time>
      </trkpt>
      <trkpt lat="48.2876" lon="6.73704">
        <ele>380</ele>
        <time>2025-12-19T12:11:15Z</time>
      </trkpt>
      <trkpt lat="48.28763" lon="6.73711">
        <ele>379</ele>
        <time>2025-12-19T12:11:19Z</time>
      </trkpt>
      <trkpt lat="48.28763" lon="6.73739">
        <ele>379</ele>
        <time>2025-12-19T12:11:33Z</time>
      </trkpt>
      <trkpt lat="48.28763" lon="6.73746">
        <ele>379</ele>
        <time>2025-12-19T12:11:36Z</time>
      </trkpt>
      <trkpt lat="48.28761" lon="6.73762">
        <ele>379</ele>
        <time>2025-12-19T12:11:43Z</time>
      </trkpt>
      <trkpt lat="48.28767" lon="6.73789">
        <ele>380</ele>
        <time>2025-12-19T12:11:56Z</time>
      </trkpt>
      <trkpt lat="48.28768" lon="6.73813">
        <ele>379</ele>
        <time>2025-12-19T12:12:09Z</time>
      </trkpt>
      <trkpt lat="48.2877" lon="6.73819">
        <ele>379</ele>
        <time>2025-12-19T12:12:12Z</time>
      </trkpt>
      <trkpt lat="48.28786" lon="6.73862">
        <ele>379</ele>
        <time>2025-12-19T12:12:39Z</time>
      </trkpt>
      <trkpt lat="48.28784" lon="6.73906">
        <ele>380</ele>
        <time>2025-12-19T12:13:02Z</time>
      </trkpt>
      <trkpt lat="48.28785" lon="6.73913">
        <ele>379</ele>
        <time>2025-12-19T12:13:06Z</time>
      </trkpt>
      <trkpt lat="48.28788" lon="6.73951">
        <ele>378</ele>
        <time>2025-12-19T12:13:26Z</time>
      </trkpt>
      <trkpt lat="48.28792" lon="6.73964">
        <ele>377</ele>
        <time>2025-12-19T12:13:35Z</time>
      </trkpt>
      <trkpt lat="48.28794" lon="6.73971">
        <ele>377</ele>
        <time>2025-12-19T12:13:39Z</time>
      </trkpt>
      <trkpt lat="48.28799" lon="6.73975">
        <ele>377</ele>
        <time>2025-12-19T12:13:41Z</time>
      </trkpt>
      <trkpt lat="48.28804" lon="6.73975">
        <ele>377</ele>
        <time>2025-12-19T12:13:46Z</time>
      </trkpt>
      <trkpt lat="48.28806" lon="6.73981">
        <ele>377</ele>
        <time>2025-12-19T12:13:50Z</time>
      </trkpt>
      <trkpt lat="48.28803" lon="6.73988">
        <ele>377</ele>
        <time>2025-12-19T12:13:55Z</time>
      </trkpt>
      <trkpt lat="48.288" lon="6.73995">
        <ele>378</ele>
        <time>2025-12-19T12:14:03Z</time>
      </trkpt>
      <trkpt lat="48.28801" lon="6.74026">
        <ele>380</ele>
        <time>2025-12-19T12:14:21Z</time>
      </trkpt>
      <trkpt lat="48.28804" lon="6.74032">
        <ele>381</ele>
        <time>2025-12-19T12:14:25Z</time>
      </trkpt>
      <trkpt lat="48.28804" lon="6.74049">
        <ele>382</ele>
        <time>2025-12-19T12:14:33Z</time>
      </trkpt>
      <trkpt lat="48.28802" lon="6.74053">
        <ele>384</ele>
        <time>2025-12-19T12:15:01Z</time>
      </trkpt>
      <trkpt lat="48.28805" lon="6.74063">
        <ele>385</ele>
        <time>2025-12-19T12:15:19Z</time>
      </trkpt>
      <trkpt lat="48.28809" lon="6.74114">
        <ele>389</ele>
        <time>2025-12-19T12:15:53Z</time>
      </trkpt>
      <trkpt lat="48.28811" lon="6.74166">
        <ele>393</ele>
        <time>2025-12-19T12:16:23Z</time>
      </trkpt>
      <trkpt lat="48.28812" lon="6.74182">
        <ele>395</ele>
        <time>2025-12-19T12:16:36Z</time>
      </trkpt>
      <trkpt lat="48.28812" lon="6.74191">
        <ele>396</ele>
        <time>2025-12-19T12:16:40Z</time>
      </trkpt>
      <trkpt lat="48.28812" lon="6.74205">
        <ele>397</ele>
        <time>2025-12-19T12:16:49Z</time>
      </trkpt>
      <trkpt lat="48.28801" lon="6.7426">
        <ele>401</ele>
        <time>2025-12-19T12:17:25Z</time>
      </trkpt>
      <trkpt lat="48.28794" lon="6.74273">
        <ele>402</ele>
        <time>2025-12-19T12:17:38Z</time>
      </trkpt>
      <trkpt lat="48.28789" lon="6.74278">
        <ele>402</ele>
        <time>2025-12-19T12:17:42Z</time>
      </trkpt>
      <trkpt lat="48.28787" lon="6.74282">
        <ele>403</ele>
        <time>2025-12-19T12:17:49Z</time>
      </trkpt>
      <trkpt lat="48.28784" lon="6.74288">
        <ele>403</ele>
        <time>2025-12-19T12:17:53Z</time>
      </trkpt>
      <trkpt lat="48.28778" lon="6.74291">
        <ele>404</ele>
        <time>2025-12-19T12:17:57Z</time>
      </trkpt>
      <trkpt lat="48.28774" lon="6.74289">
        <ele>404</ele>
        <time>2025-12-19T12:18:02Z</time>
      </trkpt>
      <trkpt lat="48.28764" lon="6.74289">
        <ele>405</ele>
        <time>2025-12-19T12:18:09Z</time>
      </trkpt>
      <trkpt lat="48.28737" lon="6.74295">
        <ele>409</ele>
        <time>2025-12-19T12:18:40Z</time>
      </trkpt>
      <trkpt lat="48.2873" lon="6.74301">
        <ele>410</ele>
        <time>2025-12-19T12:18:50Z</time>
      </trkpt>
      <trkpt lat="48.28722" lon="6.74314">
        <ele>412</ele>
        <time>2025-12-19T12:19:01Z</time>
      </trkpt>
      <trkpt lat="48.2871" lon="6.74342">
        <ele>416</ele>
        <time>2025-12-19T12:19:30Z</time>
      </trkpt>
      <trkpt lat="48.28707" lon="6.74352">
        <ele>417</ele>
        <time>2025-12-19T12:19:36Z</time>
      </trkpt>
      <trkpt lat="48.28705" lon="6.74358">
        <ele>417</ele>
        <time>2025-12-19T12:19:41Z</time>
      </trkpt>
      <trkpt lat="48.28698" lon="6.74363">
        <ele>417</ele>
        <time>2025-12-19T12:19:48Z</time>
      </trkpt>
      <trkpt lat="48.28694" lon="6.74365">
        <ele>418</ele>
        <time>2025-12-19T12:19:55Z</time>
      </trkpt>
      <trkpt lat="48.2869" lon="6.7437">
        <ele>418</ele>
        <time>2025-12-19T12:19:59Z</time>
      </trkpt>
      <trkpt lat="48.28685" lon="6.74373">
        <ele>418</ele>
        <time>2025-12-19T12:20:02Z</time>
      </trkpt>
      <trkpt lat="48.2866" lon="6.74393">
        <ele>422</ele>
        <time>2025-12-19T12:20:35Z</time>
      </trkpt>
      <trkpt lat="48.28626" lon="6.74417">
        <ele>426</ele>
        <time>2025-12-19T12:21:12Z</time>
      </trkpt>
      <trkpt lat="48.2862" lon="6.7442">
        <ele>427</ele>
        <time>2025-12-19T12:21:19Z</time>
      </trkpt>
      <trkpt lat="48.28605" lon="6.7443">
        <ele>429</ele>
        <time>2025-12-19T12:21:34Z</time>
      </trkpt>
      <trkpt lat="48.28602" lon="6.74433">
        <ele>429</ele>
        <time>2025-12-19T12:21:43Z</time>
      </trkpt>
      <trkpt lat="48.28587" lon="6.74441">
        <ele>432</ele>
        <time>2025-12-19T12:22:18Z</time>
      </trkpt>
      <trkpt lat="48.28573" lon="6.74451">
        <ele>433</ele>
        <time>2025-12-19T12:22:27Z</time>
      </trkpt>
      <trkpt lat="48.28567" lon="6.74455">
        <ele>434</ele>
        <time>2025-12-19T12:22:37Z</time>
      </trkpt>
      <trkpt lat="48.28538" lon="6.74475">
        <ele>439</ele>
        <time>2025-12-19T12:23:15Z</time>
      </trkpt>
      <trkpt lat="48.28511" lon="6.74491">
        <ele>442</ele>
        <time>2025-12-19T12:23:45Z</time>
      </trkpt>
      <trkpt lat="48.28501" lon="6.74497">
        <ele>444</ele>
        <time>2025-12-19T12:23:59Z</time>
      </trkpt>
      <trkpt lat="48.28496" lon="6.74497">
        <ele>444</ele>
        <time>2025-12-19T12:24:02Z</time>
      </trkpt>
      <trkpt lat="48.28488" lon="6.74491">
        <ele>445</ele>
        <time>2025-12-19T12:24:09Z</time>
      </trkpt>
      <trkpt lat="48.28485" lon="6.74496">
        <ele>446</ele>
        <time>2025-12-19T12:24:13Z</time>
      </trkpt>
      <trkpt lat="48.28481" lon="6.74504">
        <ele>447</ele>
        <time>2025-12-19T12:24:21Z</time>
      </trkpt>
      <trkpt lat="48.2848" lon="6.74517">
        <ele>448</ele>
        <time>2025-12-19T12:24:30Z</time>
      </trkpt>
      <trkpt lat="48.28483" lon="6.74524">
        <ele>448</ele>
        <time>2025-12-19T12:24:34Z</time>
      </trkpt>
      <trkpt lat="48.28483" lon="6.74531">
        <ele>449</ele>
        <time>2025-12-19T12:24:39Z</time>
      </trkpt>
      <trkpt lat="48.28482" lon="6.74539">
        <ele>449</ele>
        <time>2025-12-19T12:24:45Z</time>
      </trkpt>
      <trkpt lat="48.28482" lon="6.7456">
        <ele>450</ele>
        <time>2025-12-19T12:25:02Z</time>
      </trkpt>
      <trkpt lat="48.28483" lon="6.74567">
        <ele>451</ele>
        <time>2025-12-19T12:25:06Z</time>
      </trkpt>
      <trkpt lat="48.28481" lon="6.74576">
        <ele>452</ele>
        <time>2025-12-19T12:25:13Z</time>
      </trkpt>
      <trkpt lat="48.28481" lon="6.74582">
        <ele>452</ele>
        <time>2025-12-19T12:25:18Z</time>
      </trkpt>
      <trkpt lat="48.28481" lon="6.74592">
        <ele>453</ele>
        <time>2025-12-19T12:25:24Z</time>
      </trkpt>
      <trkpt lat="48.28479" lon="6.74599">
        <ele>454</ele>
        <time>2025-12-19T12:25:31Z</time>
      </trkpt>
      <trkpt lat="48.28481" lon="6.74608">
        <ele>455</ele>
        <time>2025-12-19T12:25:58Z</time>
      </trkpt>
      <trkpt lat="48.28485" lon="6.74645">
        <ele>458</ele>
        <time>2025-12-19T12:26:31Z</time>
      </trkpt>
      <trkpt lat="48.28487" lon="6.74652">
        <ele>459</ele>
        <time>2025-12-19T12:26:35Z</time>
      </trkpt>
      <trkpt lat="48.28491" lon="6.74663">
        <ele>460</ele>
        <time>2025-12-19T12:26:41Z</time>
      </trkpt>
      <trkpt lat="48.28495" lon="6.74667">
        <ele>461</ele>
        <time>2025-12-19T12:26:45Z</time>
      </trkpt>
      <trkpt lat="48.28497" lon="6.74673">
        <ele>461</ele>
        <time>2025-12-19T12:26:51Z</time>
      </trkpt>
      <trkpt lat="48.28498" lon="6.74681">
        <ele>462</ele>
        <time>2025-12-19T12:26:55Z</time>
      </trkpt>
      <trkpt lat="48.28502" lon="6.74689">
        <ele>463</ele>
        <time>2025-12-19T12:27:01Z</time>
      </trkpt>
      <trkpt lat="48.28505" lon="6.74701">
        <ele>465</ele>
        <time>2025-12-19T12:27:59Z</time>
      </trkpt>
      <trkpt lat="48.28504" lon="6.74708">
        <ele>465</ele>
        <time>2025-12-19T12:28:03Z</time>
      </trkpt>
      <trkpt lat="48.28503" lon="6.74715">
        <ele>465</ele>
        <time>2025-12-19T12:28:08Z</time>
      </trkpt>
      <trkpt lat="48.28499" lon="6.74729">
        <ele>465</ele>
        <time>2025-12-19T12:28:16Z</time>
      </trkpt>
      <trkpt lat="48.28498" lon="6.74736">
        <ele>465</ele>
        <time>2025-12-19T12:28:20Z</time>
      </trkpt>
      <trkpt lat="48.28503" lon="6.74744">
        <ele>465</ele>
        <time>2025-12-19T12:28:27Z</time>
      </trkpt>
      <trkpt lat="48.28507" lon="6.7477">
        <ele>465</ele>
        <time>2025-12-19T12:28:40Z</time>
      </trkpt>
      <trkpt lat="48.28506" lon="6.74779">
        <ele>465</ele>
        <time>2025-12-19T12:28:42Z</time>
      </trkpt>
      <trkpt lat="48.28505" lon="6.74785">
        <ele>464</ele>
        <time>2025-12-19T12:28:46Z</time>
      </trkpt>
      <trkpt lat="48.28504" lon="6.74799">
        <ele>464</ele>
        <time>2025-12-19T12:28:54Z</time>
      </trkpt>
      <trkpt lat="48.28503" lon="6.74805">
        <ele>464</ele>
        <time>2025-12-19T12:28:58Z</time>
      </trkpt>
      <trkpt lat="48.28503" lon="6.74811">
        <ele>464</ele>
        <time>2025-12-19T12:29:01Z</time>
      </trkpt>
      <trkpt lat="48.28505" lon="6.74811">
        <ele>464</ele>
        <time>2025-12-19T12:29:26Z</time>
      </trkpt>
      <trkpt lat="48.28501" lon="6.74821">
        <ele>464</ele>
        <time>2025-12-19T12:29:47Z</time>
      </trkpt>
      <trkpt lat="48.28498" lon="6.74827">
        <ele>464</ele>
        <time>2025-12-19T12:31:41Z</time>
      </trkpt>
      <trkpt lat="48.28492" lon="6.74832">
        <ele>464</ele>
        <time>2025-12-19T12:31:44Z</time>
      </trkpt>
      <trkpt lat="48.28492" lon="6.74838">
        <ele>464</ele>
        <time>2025-12-19T12:31:51Z</time>
      </trkpt>
      <trkpt lat="48.2849" lon="6.74846">
        <ele>464</ele>
        <time>2025-12-19T12:31:55Z</time>
      </trkpt>
      <trkpt lat="48.28487" lon="6.7485">
        <ele>465</ele>
        <time>2025-12-19T12:32:03Z</time>
      </trkpt>
      <trkpt lat="48.28485" lon="6.74859">
        <ele>465</ele>
        <time>2025-12-19T12:32:06Z</time>
      </trkpt>
      <trkpt lat="48.28483" lon="6.74859">
        <ele>465</ele>
        <time>2025-12-19T12:32:21Z</time>
      </trkpt>
      <trkpt lat="48.28461" lon="6.74911">
        <ele>465</ele>
        <time>2025-12-19T12:32:52Z</time>
      </trkpt>
      <trkpt lat="48.28458" lon="6.74917">
        <ele>465</ele>
        <time>2025-12-19T12:32:55Z</time>
      </trkpt>
      <trkpt lat="48.28452" lon="6.74928">
        <ele>465</ele>
        <time>2025-12-19T12:33:01Z</time>
      </trkpt>
      <trkpt lat="48.28447" lon="6.74939">
        <ele>465</ele>
        <time>2025-12-19T12:33:07Z</time>
      </trkpt>
      <trkpt lat="48.28436" lon="6.74963">
        <ele>465</ele>
        <time>2025-12-19T12:33:21Z</time>
      </trkpt>
      <trkpt lat="48.28421" lon="6.74996">
        <ele>469</ele>
        <time>2025-12-19T12:33:50Z</time>
      </trkpt>
      <trkpt lat="48.28407" lon="6.75035">
        <ele>472</ele>
        <time>2025-12-19T12:34:13Z</time>
      </trkpt>
      <trkpt lat="48.28398" lon="6.75059">
        <ele>475</ele>
        <time>2025-12-19T12:34:31Z</time>
      </trkpt>
      <trkpt lat="48.28398" lon="6.75069">
        <ele>475</ele>
        <time>2025-12-19T12:34:38Z</time>
      </trkpt>
      <trkpt lat="48.28395" lon="6.75099">
        <ele>478</ele>
        <time>2025-12-19T12:34:59Z</time>
      </trkpt>
      <trkpt lat="48.28388" lon="6.75111">
        <ele>479</ele>
        <time>2025-12-19T12:35:06Z</time>
      </trkpt>
      <trkpt lat="48.28392" lon="6.7512">
        <ele>479</ele>
        <time>2025-12-19T12:35:12Z</time>
      </trkpt>
      <trkpt lat="48.28403" lon="6.7512">
        <ele>480</ele>
        <time>2025-12-19T12:35:18Z</time>
      </trkpt>
      <trkpt lat="48.28408" lon="6.75125">
        <ele>480</ele>
        <time>2025-12-19T12:35:26Z</time>
      </trkpt>
      <trkpt lat="48.28411" lon="6.75132">
        <ele>481</ele>
        <time>2025-12-19T12:35:31Z</time>
      </trkpt>
      <trkpt lat="48.28417" lon="6.75145">
        <ele>482</ele>
        <time>2025-12-19T12:35:42Z</time>
      </trkpt>
      <trkpt lat="48.28422" lon="6.75161">
        <ele>483</ele>
        <time>2025-12-19T12:35:53Z</time>
      </trkpt>
      <trkpt lat="48.28426" lon="6.75166">
        <ele>484</ele>
        <time>2025-12-19T12:35:56Z</time>
      </trkpt>
      <trkpt lat="48.28432" lon="6.75164">
        <ele>483</ele>
        <time>2025-12-19T12:36:04Z</time>
      </trkpt>
      <trkpt lat="48.2844" lon="6.75176">
        <ele>483</ele>
        <time>2025-12-19T12:36:11Z</time>
      </trkpt>
      <trkpt lat="48.28438" lon="6.75183">
        <ele>483</ele>
        <time>2025-12-19T12:36:15Z</time>
      </trkpt>
      <trkpt lat="48.28438" lon="6.75201">
        <ele>486</ele>
        <time>2025-12-19T12:36:26Z</time>
      </trkpt>
      <trkpt lat="48.28437" lon="6.75222">
        <ele>489</ele>
        <time>2025-12-19T12:36:45Z</time>
      </trkpt>
      <trkpt lat="48.28437" lon="6.7523">
        <ele>490</ele>
        <time>2025-12-19T12:36:50Z</time>
      </trkpt>
      <trkpt lat="48.28436" lon="6.75238">
        <ele>491</ele>
        <time>2025-12-19T12:36:54Z</time>
      </trkpt>
      <trkpt lat="48.28436" lon="6.7525">
        <ele>491</ele>
        <time>2025-12-19T12:37:03Z</time>
      </trkpt>
      <trkpt lat="48.28434" lon="6.7526">
        <ele>492</ele>
        <time>2025-12-19T12:37:12Z</time>
      </trkpt>
      <trkpt lat="48.28428" lon="6.75266">
        <ele>493</ele>
        <time>2025-12-19T12:37:21Z</time>
      </trkpt>
      <trkpt lat="48.28435" lon="6.75301">
        <ele>495</ele>
        <time>2025-12-19T12:37:44Z</time>
      </trkpt>
      <trkpt lat="48.2844" lon="6.75317">
        <ele>495</ele>
        <time>2025-12-19T12:37:54Z</time>
      </trkpt>
      <trkpt lat="48.28445" lon="6.75321">
        <ele>495</ele>
        <time>2025-12-19T12:37:57Z</time>
      </trkpt>
      <trkpt lat="48.28451" lon="6.75331">
        <ele>494</ele>
        <time>2025-12-19T12:38:08Z</time>
      </trkpt>
      <trkpt lat="48.28446" lon="6.75335">
        <ele>494</ele>
        <time>2025-12-19T12:38:12Z</time>
      </trkpt>
      <trkpt lat="48.28449" lon="6.75341">
        <ele>495</ele>
        <time>2025-12-19T12:38:19Z</time>
      </trkpt>
      <trkpt lat="48.28455" lon="6.75352">
        <ele>494</ele>
        <time>2025-12-19T12:38:27Z</time>
      </trkpt>
      <trkpt lat="48.28459" lon="6.75357">
        <ele>494</ele>
        <time>2025-12-19T12:38:35Z</time>
      </trkpt>
      <trkpt lat="48.28464" lon="6.75359">
        <ele>494</ele>
        <time>2025-12-19T12:38:37Z</time>
      </trkpt>
      <trkpt lat="48.28467" lon="6.75363">
        <ele>493</ele>
        <time>2025-12-19T12:38:40Z</time>
      </trkpt>
      <trkpt lat="48.28468" lon="6.75371">
        <ele>493</ele>
        <time>2025-12-19T12:38:44Z</time>
      </trkpt>
      <trkpt lat="48.28472" lon="6.75379">
        <ele>492</ele>
        <time>2025-12-19T12:38:51Z</time>
      </trkpt>
      <trkpt lat="48.28476" lon="6.75384">
        <ele>492</ele>
        <time>2025-12-19T12:38:55Z</time>
      </trkpt>
      <trkpt lat="48.28477" lon="6.75391">
        <ele>491</ele>
        <time>2025-12-19T12:38:59Z</time>
      </trkpt>
      <trkpt lat="48.2848" lon="6.75404">
        <ele>490</ele>
        <time>2025-12-19T12:39:10Z</time>
      </trkpt>
      <trkpt lat="48.28478" lon="6.75413">
        <ele>489</ele>
        <time>2025-12-19T12:39:17Z</time>
      </trkpt>
      <trkpt lat="48.28476" lon="6.75433">
        <ele>487</ele>
        <time>2025-12-19T12:40:12Z</time>
      </trkpt>
      <trkpt lat="48.28476" lon="6.75447">
        <ele>486</ele>
        <time>2025-12-19T12:40:21Z</time>
      </trkpt>
      <trkpt lat="48.28475" lon="6.75456">
        <ele>486</ele>
        <time>2025-12-19T12:40:31Z</time>
      </trkpt>
      <trkpt lat="48.28476" lon="6.75485">
        <ele>483</ele>
        <time>2025-12-19T12:41:20Z</time>
      </trkpt>
      <trkpt lat="48.2848" lon="6.75538">
        <ele>483</ele>
        <time>2025-12-19T12:41:53Z</time>
      </trkpt>
      <trkpt lat="48.28489" lon="6.75577">
        <ele>483</ele>
        <time>2025-12-19T12:42:22Z</time>
      </trkpt>
      <trkpt lat="48.28496" lon="6.75589">
        <ele>484</ele>
        <time>2025-12-19T12:42:28Z</time>
      </trkpt>
      <trkpt lat="48.28501" lon="6.75606">
        <ele>483</ele>
        <time>2025-12-19T12:42:41Z</time>
      </trkpt>
      <trkpt lat="48.28501" lon="6.75614">
        <ele>483</ele>
        <time>2025-12-19T12:42:45Z</time>
      </trkpt>
      <trkpt lat="48.28502" lon="6.75624">
        <ele>484</ele>
        <time>2025-12-19T12:42:55Z</time>
      </trkpt>
      <trkpt lat="48.28502" lon="6.75631">
        <ele>485</ele>
        <time>2025-12-19T12:43:00Z</time>
      </trkpt>
      <trkpt lat="48.28497" lon="6.75645">
        <ele>483</ele>
        <time>2025-12-19T12:43:06Z</time>
      </trkpt>
      <trkpt lat="48.28498" lon="6.75657">
        <ele>483</ele>
        <time>2025-12-19T12:43:16Z</time>
      </trkpt>
      <trkpt lat="48.28505" lon="6.75671">
        <ele>483</ele>
        <time>2025-12-19T12:43:24Z</time>
      </trkpt>
      <trkpt lat="48.28516" lon="6.75684">
        <ele>483</ele>
        <time>2025-12-19T12:43:33Z</time>
      </trkpt>
      <trkpt lat="48.28521" lon="6.75687">
        <ele>484</ele>
        <time>2025-12-19T12:43:36Z</time>
      </trkpt>
      <trkpt lat="48.28526" lon="6.7569">
        <ele>484</ele>
        <time>2025-12-19T12:43:40Z</time>
      </trkpt>
      <trkpt lat="48.28535" lon="6.75692">
        <ele>484</ele>
        <time>2025-12-19T12:43:46Z</time>
      </trkpt>
      <trkpt lat="48.28539" lon="6.75689">
        <ele>484</ele>
        <time>2025-12-19T12:43:50Z</time>
      </trkpt>
      <trkpt lat="48.28544" lon="6.7569">
        <ele>484</ele>
        <time>2025-12-19T12:43:53Z</time>
      </trkpt>
      <trkpt lat="48.28548" lon="6.75688">
        <ele>484</ele>
        <time>2025-12-19T12:43:56Z</time>
      </trkpt>
      <trkpt lat="48.28562" lon="6.7568">
        <ele>484</ele>
        <time>2025-12-19T12:44:05Z</time>
      </trkpt>
      <trkpt lat="48.28567" lon="6.7568">
        <ele>484</ele>
        <time>2025-12-19T12:44:09Z</time>
      </trkpt>
      <trkpt lat="48.28571" lon="6.75683">
        <ele>484</ele>
        <time>2025-12-19T12:44:12Z</time>
      </trkpt>
      <trkpt lat="48.28576" lon="6.75683">
        <ele>484</ele>
        <time>2025-12-19T12:44:16Z</time>
      </trkpt>
      <trkpt lat="48.2858" lon="6.75681">
        <ele>484</ele>
        <time>2025-12-19T12:44:19Z</time>
      </trkpt>
      <trkpt lat="48.28585" lon="6.75683">
        <ele>484</ele>
        <time>2025-12-19T12:44:23Z</time>
      </trkpt>
      <trkpt lat="48.2859" lon="6.75682">
        <ele>484</ele>
        <time>2025-12-19T12:44:26Z</time>
      </trkpt>
      <trkpt lat="48.28602" lon="6.75691">
        <ele>484</ele>
        <time>2025-12-19T12:44:38Z</time>
      </trkpt>
      <trkpt lat="48.28618" lon="6.75697">
        <ele>484</ele>
        <time>2025-12-19T12:44:50Z</time>
      </trkpt>
      <trkpt lat="48.28622" lon="6.75702">
        <ele>484</ele>
        <time>2025-12-19T12:44:54Z</time>
      </trkpt>
      <trkpt lat="48.28628" lon="6.75703">
        <ele>484</ele>
        <time>2025-12-19T12:44:58Z</time>
      </trkpt>
      <trkpt lat="48.28643" lon="6.75704">
        <ele>485</ele>
        <time>2025-12-19T12:45:10Z</time>
      </trkpt>
      <trkpt lat="48.28646" lon="6.75705">
        <ele>486</ele>
        <time>2025-12-19T12:45:35Z</time>
      </trkpt>
      <trkpt lat="48.28663" lon="6.75703">
        <ele>486</ele>
        <time>2025-12-19T12:45:55Z</time>
      </trkpt>
      <trkpt lat="48.28669" lon="6.757">
        <ele>486</ele>
        <time>2025-12-19T12:46:02Z</time>
      </trkpt>
      <trkpt lat="48.28696" lon="6.75696">
        <ele>486</ele>
        <time>2025-12-19T12:46:21Z</time>
      </trkpt>
      <trkpt lat="48.287" lon="6.75697">
        <ele>487</ele>
        <time>2025-12-19T12:46:24Z</time>
      </trkpt>
      <trkpt lat="48.28705" lon="6.75696">
        <ele>487</ele>
        <time>2025-12-19T12:46:28Z</time>
      </trkpt>
      <trkpt lat="48.2873" lon="6.75694">
        <ele>487</ele>
        <time>2025-12-19T12:46:47Z</time>
      </trkpt>
      <trkpt lat="48.28765" lon="6.75678">
        <ele>486</ele>
        <time>2025-12-19T12:47:15Z</time>
      </trkpt>
      <trkpt lat="48.28788" lon="6.75663">
        <ele>486</ele>
        <time>2025-12-19T12:47:33Z</time>
      </trkpt>
      <trkpt lat="48.28792" lon="6.75662">
        <ele>485</ele>
        <time>2025-12-19T12:47:36Z</time>
      </trkpt>
      <trkpt lat="48.28796" lon="6.75658">
        <ele>485</ele>
        <time>2025-12-19T12:47:39Z</time>
      </trkpt>
      <trkpt lat="48.28806" lon="6.75656">
        <ele>485</ele>
        <time>2025-12-19T12:47:46Z</time>
      </trkpt>
      <trkpt lat="48.2881" lon="6.75653">
        <ele>485</ele>
        <time>2025-12-19T12:47:50Z</time>
      </trkpt>
      <trkpt lat="48.28819" lon="6.75652">
        <ele>484</ele>
        <time>2025-12-19T12:47:56Z</time>
      </trkpt>
      <trkpt lat="48.28823" lon="6.75651">
        <ele>484</ele>
        <time>2025-12-19T12:47:59Z</time>
      </trkpt>
      <trkpt lat="48.28829" lon="6.75651">
        <ele>484</ele>
        <time>2025-12-19T12:48:03Z</time>
      </trkpt>
      <trkpt lat="48.28841" lon="6.75657">
        <ele>483</ele>
        <time>2025-12-19T12:48:12Z</time>
      </trkpt>
      <trkpt lat="48.28849" lon="6.75664">
        <ele>483</ele>
        <time>2025-12-19T12:48:18Z</time>
      </trkpt>
      <trkpt lat="48.28856" lon="6.75674">
        <ele>482</ele>
        <time>2025-12-19T12:48:25Z</time>
      </trkpt>
      <trkpt lat="48.28861" lon="6.75687">
        <ele>482</ele>
        <time>2025-12-19T12:48:33Z</time>
      </trkpt>
      <trkpt lat="48.28862" lon="6.75693">
        <ele>481</ele>
        <time>2025-12-19T12:48:38Z</time>
      </trkpt>
      <trkpt lat="48.28862" lon="6.75703">
        <ele>481</ele>
        <time>2025-12-19T12:48:47Z</time>
      </trkpt>
      <trkpt lat="48.28861" lon="6.7571">
        <ele>481</ele>
        <time>2025-12-19T12:48:51Z</time>
      </trkpt>
      <trkpt lat="48.28855" lon="6.7572">
        <ele>481</ele>
        <time>2025-12-19T12:48:59Z</time>
      </trkpt>
      <trkpt lat="48.28853" lon="6.75729">
        <ele>480</ele>
        <time>2025-12-19T12:49:03Z</time>
      </trkpt>
      <trkpt lat="48.28851" lon="6.75744">
        <ele>479</ele>
        <time>2025-12-19T12:49:09Z</time>
      </trkpt>
      <trkpt lat="48.28847" lon="6.75766">
        <ele>479</ele>
        <time>2025-12-19T12:49:19Z</time>
      </trkpt>
      <trkpt lat="48.28844" lon="6.75771">
        <ele>479</ele>
        <time>2025-12-19T12:49:22Z</time>
      </trkpt>
      <trkpt lat="48.28842" lon="6.75786">
        <ele>479</ele>
        <time>2025-12-19T12:49:30Z</time>
      </trkpt>
      <trkpt lat="48.28837" lon="6.75797">
        <ele>478</ele>
        <time>2025-12-19T12:49:36Z</time>
      </trkpt>
      <trkpt lat="48.28833" lon="6.75802">
        <ele>478</ele>
        <time>2025-12-19T12:49:39Z</time>
      </trkpt>
      <trkpt lat="48.28829" lon="6.75805">
        <ele>478</ele>
        <time>2025-12-19T12:49:42Z</time>
      </trkpt>
      <trkpt lat="48.28808" lon="6.75835">
        <ele>476</ele>
        <time>2025-12-19T12:50:02Z</time>
      </trkpt>
      <trkpt lat="48.28777" lon="6.75866">
        <ele>474</ele>
        <time>2025-12-19T12:50:27Z</time>
      </trkpt>
      <trkpt lat="48.28774" lon="6.75872">
        <ele>474</ele>
        <time>2025-12-19T12:50:31Z</time>
      </trkpt>
      <trkpt lat="48.28766" lon="6.75879">
        <ele>473</ele>
        <time>2025-12-19T12:50:38Z</time>
      </trkpt>
      <trkpt lat="48.28761" lon="6.7588">
        <ele>473</ele>
        <time>2025-12-19T12:50:41Z</time>
      </trkpt>
      <trkpt lat="48.28754" lon="6.75889">
        <ele>472</ele>
        <time>2025-12-19T12:50:48Z</time>
      </trkpt>
      <trkpt lat="48.2875" lon="6.75891">
        <ele>472</ele>
        <time>2025-12-19T12:50:51Z</time>
      </trkpt>
      <trkpt lat="48.28746" lon="6.75895">
        <ele>472</ele>
        <time>2025-12-19T12:50:55Z</time>
      </trkpt>
      <trkpt lat="48.28743" lon="6.75901">
        <ele>471</ele>
        <time>2025-12-19T12:50:58Z</time>
      </trkpt>
      <trkpt lat="48.28739" lon="6.75905">
        <ele>471</ele>
        <time>2025-12-19T12:51:02Z</time>
      </trkpt>
      <trkpt lat="48.28735" lon="6.7591">
        <ele>470</ele>
        <time>2025-12-19T12:51:06Z</time>
      </trkpt>
      <trkpt lat="48.28722" lon="6.75923">
        <ele>467</ele>
        <time>2025-12-19T12:51:18Z</time>
      </trkpt>
      <trkpt lat="48.28715" lon="6.75923">
        <ele>465</ele>
        <time>2025-12-19T12:51:26Z</time>
      </trkpt>
      <trkpt lat="48.28708" lon="6.7592">
        <ele>465</ele>
        <time>2025-12-19T12:51:30Z</time>
      </trkpt>
      <trkpt lat="48.28705" lon="6.75926">
        <ele>465</ele>
        <time>2025-12-19T12:51:34Z</time>
      </trkpt>
      <trkpt lat="48.28705" lon="6.75936">
        <ele>465</ele>
        <time>2025-12-19T12:51:40Z</time>
      </trkpt>
      <trkpt lat="48.28707" lon="6.75941">
        <ele>465</ele>
        <time>2025-12-19T12:51:43Z</time>
      </trkpt>
      <trkpt lat="48.28708" lon="6.75949">
        <ele>464</ele>
        <time>2025-12-19T12:51:48Z</time>
      </trkpt>
      <trkpt lat="48.28715" lon="6.75976">
        <ele>462</ele>
        <time>2025-12-19T12:52:03Z</time>
      </trkpt>
      <trkpt lat="48.2872" lon="6.75981">
        <ele>461</ele>
        <time>2025-12-19T12:52:06Z</time>
      </trkpt>
      <trkpt lat="48.28725" lon="6.75981">
        <ele>461</ele>
        <time>2025-12-19T12:52:08Z</time>
      </trkpt>
      <trkpt lat="48.28729" lon="6.75978">
        <ele>459</ele>
        <time>2025-12-19T12:53:32Z</time>
      </trkpt>
      <trkpt lat="48.28748" lon="6.75984">
        <ele>455</ele>
        <time>2025-12-19T12:53:47Z</time>
      </trkpt>
      <trkpt lat="48.28756" lon="6.7598">
        <ele>454</ele>
        <time>2025-12-19T12:53:51Z</time>
      </trkpt>
      <trkpt lat="48.28762" lon="6.7598">
        <ele>452</ele>
        <time>2025-12-19T12:53:58Z</time>
      </trkpt>
      <trkpt lat="48.28766" lon="6.75978">
        <ele>451</ele>
        <time>2025-12-19T12:54:02Z</time>
      </trkpt>
      <trkpt lat="48.28786" lon="6.75979">
        <ele>446</ele>
        <time>2025-12-19T12:54:19Z</time>
      </trkpt>
      <trkpt lat="48.28792" lon="6.75979">
        <ele>443</ele>
        <time>2025-12-19T12:54:29Z</time>
      </trkpt>
      <trkpt lat="48.28789" lon="6.75989">
        <ele>441</ele>
        <time>2025-12-19T12:54:57Z</time>
      </trkpt>
      <trkpt lat="48.28783" lon="6.76019">
        <ele>441</ele>
        <time>2025-12-19T12:55:06Z</time>
      </trkpt>
      <trkpt lat="48.2878" lon="6.76025">
        <ele>441</ele>
        <time>2025-12-19T12:55:10Z</time>
      </trkpt>
      <trkpt lat="48.28759" lon="6.76041">
        <ele>444</ele>
        <time>2025-12-19T12:55:32Z</time>
      </trkpt>
      <trkpt lat="48.28757" lon="6.76047">
        <ele>445</ele>
        <time>2025-12-19T12:55:35Z</time>
      </trkpt>
      <trkpt lat="48.28749" lon="6.76057">
        <ele>446</ele>
        <time>2025-12-19T12:55:44Z</time>
      </trkpt>
      <trkpt lat="48.28743" lon="6.76058">
        <ele>447</ele>
        <time>2025-12-19T12:55:49Z</time>
      </trkpt>
      <trkpt lat="48.28737" lon="6.76073">
        <ele>449</ele>
        <time>2025-12-19T12:56:00Z</time>
      </trkpt>
      <trkpt lat="48.28737" lon="6.76079">
        <ele>450</ele>
        <time>2025-12-19T12:56:04Z</time>
      </trkpt>
      <trkpt lat="48.28733" lon="6.76084">
        <ele>451</ele>
        <time>2025-12-19T12:56:09Z</time>
      </trkpt>
      <trkpt lat="48.28726" lon="6.76086">
        <ele>452</ele>
        <time>2025-12-19T12:56:18Z</time>
      </trkpt>
      <trkpt lat="48.28721" lon="6.761">
        <ele>454</ele>
        <time>2025-12-19T12:56:29Z</time>
      </trkpt>
      <trkpt lat="48.28716" lon="6.76112">
        <ele>455</ele>
        <time>2025-12-19T12:56:38Z</time>
      </trkpt>
      <trkpt lat="48.28712" lon="6.76116">
        <ele>456</ele>
        <time>2025-12-19T12:56:42Z</time>
      </trkpt>
      <trkpt lat="48.28706" lon="6.76126">
        <ele>458</ele>
        <time>2025-12-19T12:56:54Z</time>
      </trkpt>
      <trkpt lat="48.28705" lon="6.76135">
        <ele>459</ele>
        <time>2025-12-19T12:57:00Z</time>
      </trkpt>
      <trkpt lat="48.28691" lon="6.7615">
        <ele>462</ele>
        <time>2025-12-19T12:57:23Z</time>
      </trkpt>
      <trkpt lat="48.28686" lon="6.76166">
        <ele>464</ele>
        <time>2025-12-19T12:57:39Z</time>
      </trkpt>
      <trkpt lat="48.28679" lon="6.76183">
        <ele>467</ele>
        <time>2025-12-19T12:57:53Z</time>
      </trkpt>
      <trkpt lat="48.28678" lon="6.76191">
        <ele>468</ele>
        <time>2025-12-19T12:58:01Z</time>
      </trkpt>
      <trkpt lat="48.28676" lon="6.76195">
        <ele>470</ele>
        <time>2025-12-19T12:58:09Z</time>
      </trkpt>
      <trkpt lat="48.28675" lon="6.76204">
        <ele>470</ele>
        <time>2025-12-19T12:58:13Z</time>
      </trkpt>
      <trkpt lat="48.28673" lon="6.76211">
        <ele>471</ele>
        <time>2025-12-19T12:58:20Z</time>
      </trkpt>
      <trkpt lat="48.28674" lon="6.76218">
        <ele>473</ele>
        <time>2025-12-19T12:58:32Z</time>
      </trkpt>
      <trkpt lat="48.28674" lon="6.76229">
        <ele>475</ele>
        <time>2025-12-19T12:58:42Z</time>
      </trkpt>
      <trkpt lat="48.28671" lon="6.76235">
        <ele>476</ele>
        <time>2025-12-19T12:58:48Z</time>
      </trkpt>
      <trkpt lat="48.28668" lon="6.76245">
        <ele>478</ele>
        <time>2025-12-19T12:58:59Z</time>
      </trkpt>
      <trkpt lat="48.28665" lon="6.76253">
        <ele>480</ele>
        <time>2025-12-19T12:59:09Z</time>
      </trkpt>
      <trkpt lat="48.28665" lon="6.76265">
        <ele>482</ele>
        <time>2025-12-19T12:59:19Z</time>
      </trkpt>
      <trkpt lat="48.28658" lon="6.76274">
        <ele>484</ele>
        <time>2025-12-19T12:59:31Z</time>
      </trkpt>
      <trkpt lat="48.28661" lon="6.76279">
        <ele>486</ele>
        <time>2025-12-19T12:59:39Z</time>
      </trkpt>
      <trkpt lat="48.28659" lon="6.76289">
        <ele>489</ele>
        <time>2025-12-19T12:59:55Z</time>
      </trkpt>
      <trkpt lat="48.2866" lon="6.76296">
        <ele>490</ele>
        <time>2025-12-19T13:00:06Z</time>
      </trkpt>
      <trkpt lat="48.28659" lon="6.76305">
        <ele>493</ele>
        <time>2025-12-19T13:00:21Z</time>
      </trkpt>
      <trkpt lat="48.28647" lon="6.76335">
        <ele>500</ele>
        <time>2025-12-19T13:00:57Z</time>
      </trkpt>
      <trkpt lat="48.28643" lon="6.7634">
        <ele>501</ele>
        <time>2025-12-19T13:01:03Z</time>
      </trkpt>
      <trkpt lat="48.28637" lon="6.76356">
        <ele>503</ele>
        <time>2025-12-19T13:01:17Z</time>
      </trkpt>
      <trkpt lat="48.2863" lon="6.76345">
        <ele>503</ele>
        <time>2025-12-19T13:01:55Z</time>
      </trkpt>
      <trkpt lat="48.28626" lon="6.7634">
        <ele>504</ele>
        <time>2025-12-19T13:01:58Z</time>
      </trkpt>
      <trkpt lat="48.28624" lon="6.76333">
        <ele>504</ele>
        <time>2025-12-19T13:02:02Z</time>
      </trkpt>
      <trkpt lat="48.28617" lon="6.7633">
        <ele>505</ele>
        <time>2025-12-19T13:02:08Z</time>
      </trkpt>
      <trkpt lat="48.28613" lon="6.76323">
        <ele>506</ele>
        <time>2025-12-19T13:02:13Z</time>
      </trkpt>
      <trkpt lat="48.28599" lon="6.7631">
        <ele>508</ele>
        <time>2025-12-19T13:02:29Z</time>
      </trkpt>
      <trkpt lat="48.28594" lon="6.76308">
        <ele>509</ele>
        <time>2025-12-19T13:02:33Z</time>
      </trkpt>
      <trkpt lat="48.28588" lon="6.76311">
        <ele>509</ele>
        <time>2025-12-19T13:02:39Z</time>
      </trkpt>
      <trkpt lat="48.28581" lon="6.76324">
        <ele>511</ele>
        <time>2025-12-19T13:02:48Z</time>
      </trkpt>
      <trkpt lat="48.28575" lon="6.76332">
        <ele>512</ele>
        <time>2025-12-19T13:02:56Z</time>
      </trkpt>
      <trkpt lat="48.2857" lon="6.76334">
        <ele>513</ele>
        <time>2025-12-19T13:03:02Z</time>
      </trkpt>
      <trkpt lat="48.28553" lon="6.76349">
        <ele>515</ele>
        <time>2025-12-19T13:03:19Z</time>
      </trkpt>
      <trkpt lat="48.28548" lon="6.76351">
        <ele>515</ele>
        <time>2025-12-19T13:03:22Z</time>
      </trkpt>
      <trkpt lat="48.28535" lon="6.76365">
        <ele>516</ele>
        <time>2025-12-19T13:03:37Z</time>
      </trkpt>
      <trkpt lat="48.28524" lon="6.76367">
        <ele>516</ele>
        <time>2025-12-19T13:03:44Z</time>
      </trkpt>
      <trkpt lat="48.28512" lon="6.76367">
        <ele>517</ele>
        <time>2025-12-19T13:03:55Z</time>
      </trkpt>
      <trkpt lat="48.28507" lon="6.7637">
        <ele>516</ele>
        <time>2025-12-19T13:03:59Z</time>
      </trkpt>
      <trkpt lat="48.28503" lon="6.76375">
        <ele>516</ele>
        <time>2025-12-19T13:04:02Z</time>
      </trkpt>
      <trkpt lat="48.28487" lon="6.76376">
        <ele>516</ele>
        <time>2025-12-19T13:04:13Z</time>
      </trkpt>
      <trkpt lat="48.28479" lon="6.76385">
        <ele>514</ele>
        <time>2025-12-19T13:04:21Z</time>
      </trkpt>
      <trkpt lat="48.28478" lon="6.76392">
        <ele>514</ele>
        <time>2025-12-19T13:04:24Z</time>
      </trkpt>
      <trkpt lat="48.28474" lon="6.76396">
        <ele>514</ele>
        <time>2025-12-19T13:04:27Z</time>
      </trkpt>
      <trkpt lat="48.2847" lon="6.76402">
        <ele>514</ele>
        <time>2025-12-19T13:04:31Z</time>
      </trkpt>
      <trkpt lat="48.28463" lon="6.76411">
        <ele>513</ele>
        <time>2025-12-19T13:04:37Z</time>
      </trkpt>
      <trkpt lat="48.28458" lon="6.76406">
        <ele>513</ele>
        <time>2025-12-19T13:04:40Z</time>
      </trkpt>
      <trkpt lat="48.28454" lon="6.7641">
        <ele>513</ele>
        <time>2025-12-19T13:04:44Z</time>
      </trkpt>
      <trkpt lat="48.28453" lon="6.76417">
        <ele>513</ele>
        <time>2025-12-19T13:04:47Z</time>
      </trkpt>
      <trkpt lat="48.28456" lon="6.76431">
        <ele>513</ele>
        <time>2025-12-19T13:04:53Z</time>
      </trkpt>
      <trkpt lat="48.28457" lon="6.76455">
        <ele>512</ele>
        <time>2025-12-19T13:05:05Z</time>
      </trkpt>
      <trkpt lat="48.28458" lon="6.76462">
        <ele>512</ele>
        <time>2025-12-19T13:05:08Z</time>
      </trkpt>
      <trkpt lat="48.28459" lon="6.7647">
        <ele>512</ele>
        <time>2025-12-19T13:05:12Z</time>
      </trkpt>
      <trkpt lat="48.28461" lon="6.76476">
        <ele>512</ele>
        <time>2025-12-19T13:05:15Z</time>
      </trkpt>
      <trkpt lat="48.28464" lon="6.76506">
        <ele>511</ele>
        <time>2025-12-19T13:05:29Z</time>
      </trkpt>
      <trkpt lat="48.28473" lon="6.76534">
        <ele>510</ele>
        <time>2025-12-19T13:05:42Z</time>
      </trkpt>
      <trkpt lat="48.28479" lon="6.76545">
        <ele>510</ele>
        <time>2025-12-19T13:05:48Z</time>
      </trkpt>
      <trkpt lat="48.28484" lon="6.76548">
        <ele>510</ele>
        <time>2025-12-19T13:05:52Z</time>
      </trkpt>
      <trkpt lat="48.28486" lon="6.76555">
        <ele>510</ele>
        <time>2025-12-19T13:05:55Z</time>
      </trkpt>
      <trkpt lat="48.28487" lon="6.76561">
        <ele>510</ele>
        <time>2025-12-19T13:05:58Z</time>
      </trkpt>
      <trkpt lat="48.2849" lon="6.76566">
        <ele>509</ele>
        <time>2025-12-19T13:06:01Z</time>
      </trkpt>
      <trkpt lat="48.28495" lon="6.76567">
        <ele>509</ele>
        <time>2025-12-19T13:06:04Z</time>
      </trkpt>
      <trkpt lat="48.28498" lon="6.76572">
        <ele>509</ele>
        <time>2025-12-19T13:06:07Z</time>
      </trkpt>
      <trkpt lat="48.28503" lon="6.76576">
        <ele>509</ele>
        <time>2025-12-19T13:06:11Z</time>
      </trkpt>
      <trkpt lat="48.28506" lon="6.7658">
        <ele>508</ele>
        <time>2025-12-19T13:06:14Z</time>
      </trkpt>
      <trkpt lat="48.28516" lon="6.76588">
        <ele>508</ele>
        <time>2025-12-19T13:06:22Z</time>
      </trkpt>
      <trkpt lat="48.28524" lon="6.76597">
        <ele>507</ele>
        <time>2025-12-19T13:06:30Z</time>
      </trkpt>
      <trkpt lat="48.28526" lon="6.76603">
        <ele>507</ele>
        <time>2025-12-19T13:06:33Z</time>
      </trkpt>
      <trkpt lat="48.28534" lon="6.76613">
        <ele>507</ele>
        <time>2025-12-19T13:06:40Z</time>
      </trkpt>
      <trkpt lat="48.28538" lon="6.76612">
        <ele>507</ele>
        <time>2025-12-19T13:06:43Z</time>
      </trkpt>
      <trkpt lat="48.28542" lon="6.76615">
        <ele>507</ele>
        <time>2025-12-19T13:06:46Z</time>
      </trkpt>
      <trkpt lat="48.28549" lon="6.76624">
        <ele>506</ele>
        <time>2025-12-19T13:06:52Z</time>
      </trkpt>
      <trkpt lat="48.28562" lon="6.76632">
        <ele>506</ele>
        <time>2025-12-19T13:07:02Z</time>
      </trkpt>
      <trkpt lat="48.28575" lon="6.76651">
        <ele>505</ele>
        <time>2025-12-19T13:07:14Z</time>
      </trkpt>
      <trkpt lat="48.28581" lon="6.76654">
        <ele>505</ele>
        <time>2025-12-19T13:07:18Z</time>
      </trkpt>
      <trkpt lat="48.28584" lon="6.76659">
        <ele>505</ele>
        <time>2025-12-19T13:07:21Z</time>
      </trkpt>
      <trkpt lat="48.28588" lon="6.76662">
        <ele>505</ele>
        <time>2025-12-19T13:07:24Z</time>
      </trkpt>
      <trkpt lat="48.286" lon="6.7668">
        <ele>504</ele>
        <time>2025-12-19T13:07:36Z</time>
      </trkpt>
      <trkpt lat="48.2861" lon="6.76689">
        <ele>504</ele>
        <time>2025-12-19T13:07:43Z</time>
      </trkpt>
      <trkpt lat="48.28614" lon="6.76695">
        <ele>504</ele>
        <time>2025-12-19T13:07:47Z</time>
      </trkpt>
      <trkpt lat="48.28615" lon="6.76701">
        <ele>504</ele>
        <time>2025-12-19T13:07:50Z</time>
      </trkpt>
      <trkpt lat="48.28615" lon="6.76724">
        <ele>504</ele>
        <time>2025-12-19T13:07:59Z</time>
      </trkpt>
      <trkpt lat="48.28618" lon="6.76737">
        <ele>504</ele>
        <time>2025-12-19T13:08:05Z</time>
      </trkpt>
      <trkpt lat="48.28619" lon="6.76782">
        <ele>504</ele>
        <time>2025-12-19T13:08:27Z</time>
      </trkpt>
      <trkpt lat="48.28618" lon="6.7679">
        <ele>504</ele>
        <time>2025-12-19T13:08:31Z</time>
      </trkpt>
      <trkpt lat="48.28618" lon="6.76812">
        <ele>505</ele>
        <time>2025-12-19T13:08:42Z</time>
      </trkpt>
      <trkpt lat="48.2862" lon="6.76819">
        <ele>505</ele>
        <time>2025-12-19T13:08:46Z</time>
      </trkpt>
      <trkpt lat="48.28621" lon="6.76851">
        <ele>506</ele>
        <time>2025-12-19T13:09:02Z</time>
      </trkpt>
      <trkpt lat="48.28628" lon="6.7692">
        <ele>507</ele>
        <time>2025-12-19T13:09:36Z</time>
      </trkpt>
      <trkpt lat="48.28629" lon="6.76929">
        <ele>507</ele>
        <time>2025-12-19T13:09:40Z</time>
      </trkpt>
      <trkpt lat="48.28633" lon="6.76923">
        <ele>508</ele>
        <time>2025-12-19T13:09:53Z</time>
      </trkpt>
      <trkpt lat="48.28634" lon="6.76933">
        <ele>508</ele>
        <time>2025-12-19T13:10:04Z</time>
      </trkpt>
      <trkpt lat="48.2864" lon="6.76938">
        <ele>508</ele>
        <time>2025-12-19T13:10:10Z</time>
      </trkpt>
      <trkpt lat="48.2865" lon="6.76937">
        <ele>508</ele>
        <time>2025-12-19T13:10:17Z</time>
      </trkpt>
      <trkpt lat="48.28648" lon="6.76939">
        <ele>507</ele>
        <time>2025-12-19T13:13:40Z</time>
      </trkpt>
      <trkpt lat="48.28648" lon="6.76938">
        <ele>508</ele>
        <time>2025-12-19T13:16:01Z</time>
      </trkpt>
      <trkpt lat="48.2865" lon="6.76938">
        <ele>503</ele>
        <time>2025-12-19T13:25:22Z</time>
      </trkpt>
      <trkpt lat="48.28646" lon="6.76945">
        <ele>502</ele>
        <time>2025-12-19T13:37:08Z</time>
      </trkpt>
      <trkpt lat="48.28643" lon="6.76949">
        <ele>502</ele>
        <time>2025-12-19T13:37:15Z</time>
      </trkpt>
      <trkpt lat="48.28639" lon="6.7694">
        <ele>503</ele>
        <time>2025-12-19T13:38:09Z</time>
      </trkpt>
      <trkpt lat="48.28636" lon="6.76941">
        <ele>503</ele>
        <time>2025-12-19T13:38:23Z</time>
      </trkpt>
      <trkpt lat="48.28637" lon="6.76952">
        <ele>503</ele>
        <time>2025-12-19T13:38:54Z</time>
      </trkpt>
      <trkpt lat="48.28636" lon="6.76958">
        <ele>503</ele>
        <time>2025-12-19T13:38:58Z</time>
      </trkpt>
      <trkpt lat="48.28634" lon="6.76972">
        <ele>502</ele>
        <time>2025-12-19T13:39:06Z</time>
      </trkpt>
      <trkpt lat="48.28645" lon="6.77023">
        <ele>502</ele>
        <time>2025-12-19T13:39:31Z</time>
      </trkpt>
      <trkpt lat="48.28645" lon="6.77045">
        <ele>502</ele>
        <time>2025-12-19T13:39:40Z</time>
      </trkpt>
      <trkpt lat="48.28649" lon="6.7705">
        <ele>502</ele>
        <time>2025-12-19T13:39:43Z</time>
      </trkpt>
      <trkpt lat="48.28647" lon="6.77057">
        <ele>502</ele>
        <time>2025-12-19T13:39:46Z</time>
      </trkpt>
      <trkpt lat="48.28647" lon="6.77065">
        <ele>502</ele>
        <time>2025-12-19T13:39:49Z</time>
      </trkpt>
      <trkpt lat="48.28648" lon="6.77071">
        <ele>502</ele>
        <time>2025-12-19T13:39:52Z</time>
      </trkpt>
      <trkpt lat="48.28648" lon="6.77078">
        <ele>502</ele>
        <time>2025-12-19T13:39:55Z</time>
      </trkpt>
      <trkpt lat="48.2865" lon="6.77086">
        <ele>502</ele>
        <time>2025-12-19T13:39:59Z</time>
      </trkpt>
      <trkpt lat="48.28648" lon="6.77093">
        <ele>502</ele>
        <time>2025-12-19T13:40:02Z</time>
      </trkpt>
      <trkpt lat="48.28651" lon="6.77099">
        <ele>502</ele>
        <time>2025-12-19T13:40:05Z</time>
      </trkpt>
      <trkpt lat="48.28651" lon="6.77105">
        <ele>502</ele>
        <time>2025-12-19T13:40:09Z</time>
      </trkpt>
      <trkpt lat="48.28654" lon="6.77112">
        <ele>503</ele>
        <time>2025-12-19T13:40:13Z</time>
      </trkpt>
      <trkpt lat="48.28655" lon="6.7712">
        <ele>503</ele>
        <time>2025-12-19T13:40:17Z</time>
      </trkpt>
      <trkpt lat="48.28652" lon="6.77134">
        <ele>503</ele>
        <time>2025-12-19T13:40:23Z</time>
      </trkpt>
      <trkpt lat="48.28654" lon="6.77153">
        <ele>504</ele>
        <time>2025-12-19T13:40:32Z</time>
      </trkpt>
      <trkpt lat="48.28657" lon="6.77167">
        <ele>504</ele>
        <time>2025-12-19T13:40:39Z</time>
      </trkpt>
      <trkpt lat="48.28658" lon="6.77174">
        <ele>504</ele>
        <time>2025-12-19T13:40:43Z</time>
      </trkpt>
      <trkpt lat="48.28657" lon="6.77211">
        <ele>505</ele>
        <time>2025-12-19T13:41:01Z</time>
      </trkpt>
      <trkpt lat="48.28659" lon="6.77218">
        <ele>505</ele>
        <time>2025-12-19T13:41:04Z</time>
      </trkpt>
      <trkpt lat="48.28659" lon="6.77224">
        <ele>506</ele>
        <time>2025-12-19T13:41:07Z</time>
      </trkpt>
      <trkpt lat="48.28662" lon="6.77231">
        <ele>506</ele>
        <time>2025-12-19T13:41:11Z</time>
      </trkpt>
      <trkpt lat="48.28661" lon="6.77238">
        <ele>506</ele>
        <time>2025-12-19T13:41:14Z</time>
      </trkpt>
      <trkpt lat="48.28663" lon="6.77244">
        <ele>506</ele>
        <time>2025-12-19T13:41:17Z</time>
      </trkpt>
      <trkpt lat="48.28663" lon="6.77251">
        <ele>506</ele>
        <time>2025-12-19T13:41:21Z</time>
      </trkpt>
      <trkpt lat="48.28664" lon="6.77266">
        <ele>506</ele>
        <time>2025-12-19T13:41:28Z</time>
      </trkpt>
      <trkpt lat="48.28664" lon="6.77273">
        <ele>507</ele>
        <time>2025-12-19T13:41:31Z</time>
      </trkpt>
      <trkpt lat="48.28664" lon="6.7728">
        <ele>507</ele>
        <time>2025-12-19T13:41:34Z</time>
      </trkpt>
      <trkpt lat="48.28663" lon="6.77293">
        <ele>507</ele>
        <time>2025-12-19T13:41:40Z</time>
      </trkpt>
      <trkpt lat="48.28661" lon="6.77301">
        <ele>506</ele>
        <time>2025-12-19T13:41:44Z</time>
      </trkpt>
      <trkpt lat="48.28661" lon="6.77314">
        <ele>507</ele>
        <time>2025-12-19T13:41:50Z</time>
      </trkpt>
      <trkpt lat="48.28664" lon="6.77328">
        <ele>507</ele>
        <time>2025-12-19T13:41:57Z</time>
      </trkpt>
      <trkpt lat="48.28663" lon="6.77336">
        <ele>507</ele>
        <time>2025-12-19T13:42:00Z</time>
      </trkpt>
      <trkpt lat="48.28666" lon="6.77343">
        <ele>507</ele>
        <time>2025-12-19T13:42:04Z</time>
      </trkpt>
      <trkpt lat="48.28668" lon="6.7735">
        <ele>507</ele>
        <time>2025-12-19T13:42:08Z</time>
      </trkpt>
      <trkpt lat="48.28666" lon="6.77357">
        <ele>507</ele>
        <time>2025-12-19T13:42:11Z</time>
      </trkpt>
      <trkpt lat="48.28669" lon="6.77372">
        <ele>507</ele>
        <time>2025-12-19T13:42:19Z</time>
      </trkpt>
      <trkpt lat="48.28669" lon="6.77378">
        <ele>507</ele>
        <time>2025-12-19T13:42:22Z</time>
      </trkpt>
      <trkpt lat="48.28671" lon="6.77386">
        <ele>507</ele>
        <time>2025-12-19T13:42:26Z</time>
      </trkpt>
      <trkpt lat="48.28672" lon="6.77394">
        <ele>508</ele>
        <time>2025-12-19T13:42:30Z</time>
      </trkpt>
      <trkpt lat="48.28674" lon="6.77401">
        <ele>508</ele>
        <time>2025-12-19T13:42:34Z</time>
      </trkpt>
      <trkpt lat="48.28674" lon="6.77408">
        <ele>508</ele>
        <time>2025-12-19T13:42:37Z</time>
      </trkpt>
      <trkpt lat="48.28676" lon="6.77416">
        <ele>508</ele>
        <time>2025-12-19T13:42:41Z</time>
      </trkpt>
      <trkpt lat="48.28682" lon="6.77464">
        <ele>509</ele>
        <time>2025-12-19T13:43:04Z</time>
      </trkpt>
      <trkpt lat="48.2868" lon="6.77471">
        <ele>509</ele>
        <time>2025-12-19T13:43:07Z</time>
      </trkpt>
      <trkpt lat="48.28681" lon="6.77486">
        <ele>509</ele>
        <time>2025-12-19T13:43:14Z</time>
      </trkpt>
      <trkpt lat="48.28683" lon="6.77492">
        <ele>509</ele>
        <time>2025-12-19T13:43:18Z</time>
      </trkpt>
      <trkpt lat="48.28683" lon="6.775">
        <ele>509</ele>
        <time>2025-12-19T13:43:22Z</time>
      </trkpt>
      <trkpt lat="48.28681" lon="6.77508">
        <ele>509</ele>
        <time>2025-12-19T13:43:25Z</time>
      </trkpt>
      <trkpt lat="48.28683" lon="6.77514">
        <ele>510</ele>
        <time>2025-12-19T13:43:28Z</time>
      </trkpt>
      <trkpt lat="48.28687" lon="6.77517">
        <ele>510</ele>
        <time>2025-12-19T13:43:31Z</time>
      </trkpt>
      <trkpt lat="48.28686" lon="6.77532">
        <ele>510</ele>
        <time>2025-12-19T13:43:38Z</time>
      </trkpt>
      <trkpt lat="48.28684" lon="6.7754">
        <ele>510</ele>
        <time>2025-12-19T13:43:44Z</time>
      </trkpt>
      <trkpt lat="48.28683" lon="6.7755">
        <ele>510</ele>
        <time>2025-12-19T13:43:57Z</time>
      </trkpt>
      <trkpt lat="48.28686" lon="6.7756">
        <ele>510</ele>
        <time>2025-12-19T13:44:03Z</time>
      </trkpt>
      <trkpt lat="48.28688" lon="6.77574">
        <ele>510</ele>
        <time>2025-12-19T13:44:11Z</time>
      </trkpt>
      <trkpt lat="48.2869" lon="6.7758">
        <ele>510</ele>
        <time>2025-12-19T13:44:14Z</time>
      </trkpt>
      <trkpt lat="48.28692" lon="6.77593">
        <ele>510</ele>
        <time>2025-12-19T13:44:21Z</time>
      </trkpt>
      <trkpt lat="48.28692" lon="6.77603">
        <ele>511</ele>
        <time>2025-12-19T13:44:31Z</time>
      </trkpt>
      <trkpt lat="48.28692" lon="6.77611">
        <ele>510</ele>
        <time>2025-12-19T13:44:35Z</time>
      </trkpt>
      <trkpt lat="48.28688" lon="6.77615">
        <ele>510</ele>
        <time>2025-12-19T13:44:37Z</time>
      </trkpt>
      <trkpt lat="48.28684" lon="6.77619">
        <ele>510</ele>
        <time>2025-12-19T13:44:39Z</time>
      </trkpt>
      <trkpt lat="48.28675" lon="6.77615">
        <ele>510</ele>
        <time>2025-12-19T13:44:45Z</time>
      </trkpt>
      <trkpt lat="48.28642" lon="6.77588">
        <ele>506</ele>
        <time>2025-12-19T13:45:27Z</time>
      </trkpt>
      <trkpt lat="48.28622" lon="6.77581">
        <ele>504</ele>
        <time>2025-12-19T13:45:40Z</time>
      </trkpt>
      <trkpt lat="48.28575" lon="6.77568">
        <ele>502</ele>
        <time>2025-12-19T13:46:11Z</time>
      </trkpt>
      <trkpt lat="48.2855" lon="6.77566">
        <ele>500</ele>
        <time>2025-12-19T13:46:29Z</time>
      </trkpt>
      <trkpt lat="48.28541" lon="6.77569">
        <ele>501</ele>
        <time>2025-12-19T13:46:37Z</time>
      </trkpt>
      <trkpt lat="48.28532" lon="6.77572">
        <ele>500</ele>
        <time>2025-12-19T13:46:44Z</time>
      </trkpt>
      <trkpt lat="48.28508" lon="6.77597">
        <ele>496</ele>
        <time>2025-12-19T13:47:06Z</time>
      </trkpt>
      <trkpt lat="48.28493" lon="6.77617">
        <ele>495</ele>
        <time>2025-12-19T13:47:19Z</time>
      </trkpt>
      <trkpt lat="48.28489" lon="6.7762">
        <ele>494</ele>
        <time>2025-12-19T13:47:23Z</time>
      </trkpt>
      <trkpt lat="48.28498" lon="6.77622">
        <ele>494</ele>
        <time>2025-12-19T13:47:43Z</time>
      </trkpt>
      <trkpt lat="48.28493" lon="6.7763">
        <ele>494</ele>
        <time>2025-12-19T13:47:50Z</time>
      </trkpt>
      <trkpt lat="48.28486" lon="6.77635">
        <ele>494</ele>
        <time>2025-12-19T13:47:57Z</time>
      </trkpt>
      <trkpt lat="48.28484" lon="6.77627">
        <ele>494</ele>
        <time>2025-12-19T13:48:01Z</time>
      </trkpt>
      <trkpt lat="48.28476" lon="6.77627">
        <ele>493</ele>
        <time>2025-12-19T13:48:10Z</time>
      </trkpt>
      <trkpt lat="48.28459" lon="6.7764">
        <ele>492</ele>
        <time>2025-12-19T13:48:23Z</time>
      </trkpt>
      <trkpt lat="48.28426" lon="6.7768">
        <ele>489</ele>
        <time>2025-12-19T13:48:54Z</time>
      </trkpt>
      <trkpt lat="48.28414" lon="6.77709">
        <ele>487</ele>
        <time>2025-12-19T13:49:11Z</time>
      </trkpt>
      <trkpt lat="48.28414" lon="6.77738">
        <ele>485</ele>
        <time>2025-12-19T13:49:24Z</time>
      </trkpt>
      <trkpt lat="48.28418" lon="6.77754">
        <ele>484</ele>
        <time>2025-12-19T13:49:33Z</time>
      </trkpt>
      <trkpt lat="48.28444" lon="6.77808">
        <ele>481</ele>
        <time>2025-12-19T13:50:04Z</time>
      </trkpt>
      <trkpt lat="48.28467" lon="6.77849">
        <ele>479</ele>
        <time>2025-12-19T13:50:30Z</time>
      </trkpt>
      <trkpt lat="48.28482" lon="6.77866">
        <ele>478</ele>
        <time>2025-12-19T13:50:43Z</time>
      </trkpt>
      <trkpt lat="48.28521" lon="6.77899">
        <ele>475</ele>
        <time>2025-12-19T13:51:15Z</time>
      </trkpt>
      <trkpt lat="48.28557" lon="6.77925">
        <ele>474</ele>
        <time>2025-12-19T13:51:44Z</time>
      </trkpt>
      <trkpt lat="48.2858" lon="6.77932">
        <ele>474</ele>
        <time>2025-12-19T13:52:00Z</time>
      </trkpt>
      <trkpt lat="48.28585" lon="6.77935">
        <ele>474</ele>
        <time>2025-12-19T13:52:04Z</time>
      </trkpt>
      <trkpt lat="48.28594" lon="6.77938">
        <ele>474</ele>
        <time>2025-12-19T13:52:12Z</time>
      </trkpt>
      <trkpt lat="48.28601" lon="6.77944">
        <ele>473</ele>
        <time>2025-12-19T13:52:23Z</time>
      </trkpt>
      <trkpt lat="48.28601" lon="6.77952">
        <ele>473</ele>
        <time>2025-12-19T13:52:27Z</time>
      </trkpt>
      <trkpt lat="48.28604" lon="6.77959">
        <ele>473</ele>
        <time>2025-12-19T13:52:33Z</time>
      </trkpt>
      <trkpt lat="48.28604" lon="6.77975">
        <ele>473</ele>
        <time>2025-12-19T13:52:39Z</time>
      </trkpt>
      <trkpt lat="48.28599" lon="6.77967">
        <ele>474</ele>
        <time>2025-12-19T13:52:50Z</time>
      </trkpt>
      <trkpt lat="48.28605" lon="6.77967">
        <ele>474</ele>
        <time>2025-12-19T13:52:56Z</time>
      </trkpt>
      <trkpt lat="48.28609" lon="6.77972">
        <ele>474</ele>
        <time>2025-12-19T13:53:11Z</time>
      </trkpt>
      <trkpt lat="48.28614" lon="6.77982">
        <ele>475</ele>
        <time>2025-12-19T13:53:22Z</time>
      </trkpt>
      <trkpt lat="48.28618" lon="6.77986">
        <ele>475</ele>
        <time>2025-12-19T13:53:27Z</time>
      </trkpt>
      <trkpt lat="48.28622" lon="6.78">
        <ele>476</ele>
        <time>2025-12-19T13:53:35Z</time>
      </trkpt>
      <trkpt lat="48.28626" lon="6.78004">
        <ele>476</ele>
        <time>2025-12-19T13:53:40Z</time>
      </trkpt>
      <trkpt lat="48.28632" lon="6.78002">
        <ele>477</ele>
        <time>2025-12-19T13:53:44Z</time>
      </trkpt>
      <trkpt lat="48.28635" lon="6.78011">
        <ele>477</ele>
        <time>2025-12-19T13:53:48Z</time>
      </trkpt>
      <trkpt lat="48.28639" lon="6.78014">
        <ele>478</ele>
        <time>2025-12-19T13:53:52Z</time>
      </trkpt>
      <trkpt lat="48.28641" lon="6.78025">
        <ele>479</ele>
        <time>2025-12-19T13:53:59Z</time>
      </trkpt>
      <trkpt lat="48.28647" lon="6.7803">
        <ele>479</ele>
        <time>2025-12-19T13:54:02Z</time>
      </trkpt>
      <trkpt lat="48.28651" lon="6.78029">
        <ele>480</ele>
        <time>2025-12-19T13:54:06Z</time>
      </trkpt>
      <trkpt lat="48.28655" lon="6.78033">
        <ele>482</ele>
        <time>2025-12-19T13:54:14Z</time>
      </trkpt>
      <trkpt lat="48.2866" lon="6.78033">
        <ele>482</ele>
        <time>2025-12-19T13:54:18Z</time>
      </trkpt>
      <trkpt lat="48.28664" lon="6.78041">
        <ele>484</ele>
        <time>2025-12-19T13:54:25Z</time>
      </trkpt>
      <trkpt lat="48.28665" lon="6.78048">
        <ele>484</ele>
        <time>2025-12-19T13:54:29Z</time>
      </trkpt>
      <trkpt lat="48.28669" lon="6.78057">
        <ele>486</ele>
        <time>2025-12-19T13:54:40Z</time>
      </trkpt>
      <trkpt lat="48.28674" lon="6.78073">
        <ele>488</ele>
        <time>2025-12-19T13:54:58Z</time>
      </trkpt>
      <trkpt lat="48.28683" lon="6.78082">
        <ele>490</ele>
        <time>2025-12-19T13:55:09Z</time>
      </trkpt>
      <trkpt lat="48.28684" lon="6.78091">
        <ele>491</ele>
        <time>2025-12-19T13:55:16Z</time>
      </trkpt>
      <trkpt lat="48.28693" lon="6.78101">
        <ele>493</ele>
        <time>2025-12-19T13:55:28Z</time>
      </trkpt>
      <trkpt lat="48.28691" lon="6.78109">
        <ele>493</ele>
        <time>2025-12-19T13:55:36Z</time>
      </trkpt>
      <trkpt lat="48.28692" lon="6.78111">
        <ele>494</ele>
        <time>2025-12-19T13:55:41Z</time>
      </trkpt>
      <trkpt lat="48.28698" lon="6.78112">
        <ele>494</ele>
        <time>2025-12-19T13:55:44Z</time>
      </trkpt>
      <trkpt lat="48.287" lon="6.78118">
        <ele>495</ele>
        <time>2025-12-19T13:55:49Z</time>
      </trkpt>
      <trkpt lat="48.28705" lon="6.78121">
        <ele>496</ele>
        <time>2025-12-19T13:55:53Z</time>
      </trkpt>
      <trkpt lat="48.28712" lon="6.78124">
        <ele>496</ele>
        <time>2025-12-19T13:55:57Z</time>
      </trkpt>
      <trkpt lat="48.28716" lon="6.78115">
        <ele>498</ele>
        <time>2025-12-19T13:56:16Z</time>
      </trkpt>
      <trkpt lat="48.28718" lon="6.78103">
        <ele>498</ele>
        <time>2025-12-19T13:56:27Z</time>
      </trkpt>
      <trkpt lat="48.2871" lon="6.78113">
        <ele>498</ele>
        <time>2025-12-19T13:56:43Z</time>
      </trkpt>
      <trkpt lat="48.28711" lon="6.78118">
        <ele>499</ele>
        <time>2025-12-19T13:57:10Z</time>
      </trkpt>
      <trkpt lat="48.28716" lon="6.78121">
        <ele>499</ele>
        <time>2025-12-19T13:57:13Z</time>
      </trkpt>
      <trkpt lat="48.28722" lon="6.78131">
        <ele>500</ele>
        <time>2025-12-19T13:57:20Z</time>
      </trkpt>
      <trkpt lat="48.28735" lon="6.78146">
        <ele>504</ele>
        <time>2025-12-19T13:57:41Z</time>
      </trkpt>
      <trkpt lat="48.28739" lon="6.78153">
        <ele>505</ele>
        <time>2025-12-19T13:57:48Z</time>
      </trkpt>
      <trkpt lat="48.28741" lon="6.78158">
        <ele>506</ele>
        <time>2025-12-19T13:57:56Z</time>
      </trkpt>
      <trkpt lat="48.28745" lon="6.78163">
        <ele>507</ele>
        <time>2025-12-19T13:58:00Z</time>
      </trkpt>
      <trkpt lat="48.28751" lon="6.78171">
        <ele>508</ele>
        <time>2025-12-19T13:58:09Z</time>
      </trkpt>
      <trkpt lat="48.28747" lon="6.78177">
        <ele>509</ele>
        <time>2025-12-19T13:58:13Z</time>
      </trkpt>
      <trkpt lat="48.28752" lon="6.78182">
        <ele>509</ele>
        <time>2025-12-19T13:58:16Z</time>
      </trkpt>
      <trkpt lat="48.28757" lon="6.78184">
        <ele>509</ele>
        <time>2025-12-19T13:58:20Z</time>
      </trkpt>
      <trkpt lat="48.28764" lon="6.78195">
        <ele>509</ele>
        <time>2025-12-19T13:58:30Z</time>
      </trkpt>
      <trkpt lat="48.28765" lon="6.782">
        <ele>510</ele>
        <time>2025-12-19T13:58:35Z</time>
      </trkpt>
      <trkpt lat="48.28771" lon="6.78203">
        <ele>510</ele>
        <time>2025-12-19T13:58:39Z</time>
      </trkpt>
      <trkpt lat="48.2878" lon="6.78213">
        <ele>512</ele>
        <time>2025-12-19T13:58:50Z</time>
      </trkpt>
      <trkpt lat="48.28788" lon="6.78229">
        <ele>513</ele>
        <time>2025-12-19T13:59:02Z</time>
      </trkpt>
      <trkpt lat="48.28788" lon="6.78244">
        <ele>513</ele>
        <time>2025-12-19T13:59:10Z</time>
      </trkpt>
      <trkpt lat="48.28789" lon="6.78251">
        <ele>513</ele>
        <time>2025-12-19T13:59:14Z</time>
      </trkpt>
      <trkpt lat="48.28789" lon="6.78259">
        <ele>514</ele>
        <time>2025-12-19T13:59:17Z</time>
      </trkpt>
      <trkpt lat="48.28792" lon="6.78266">
        <ele>514</ele>
        <time>2025-12-19T13:59:24Z</time>
      </trkpt>
      <trkpt lat="48.28797" lon="6.78269">
        <ele>515</ele>
        <time>2025-12-19T13:59:29Z</time>
      </trkpt>
      <trkpt lat="48.28808" lon="6.7828">
        <ele>515</ele>
        <time>2025-12-19T13:59:40Z</time>
      </trkpt>
      <trkpt lat="48.28815" lon="6.78282">
        <ele>515</ele>
        <time>2025-12-19T13:59:45Z</time>
      </trkpt>
      <trkpt lat="48.28817" lon="6.78287">
        <ele>515</ele>
        <time>2025-12-19T13:59:48Z</time>
      </trkpt>
      <trkpt lat="48.2882" lon="6.78297">
        <ele>515</ele>
        <time>2025-12-19T13:59:55Z</time>
      </trkpt>
      <trkpt lat="48.28824" lon="6.78304">
        <ele>514</ele>
        <time>2025-12-19T13:59:59Z</time>
      </trkpt>
      <trkpt lat="48.28836" lon="6.78317">
        <ele>513</ele>
        <time>2025-12-19T14:00:11Z</time>
      </trkpt>
      <trkpt lat="48.28841" lon="6.78315">
        <ele>513</ele>
        <time>2025-12-19T14:00:14Z</time>
      </trkpt>
      <trkpt lat="48.28844" lon="6.78311">
        <ele>512</ele>
        <time>2025-12-19T14:00:18Z</time>
      </trkpt>
      <trkpt lat="48.28845" lon="6.78319">
        <ele>512</ele>
        <time>2025-12-19T14:00:39Z</time>
      </trkpt>
      <trkpt lat="48.28841" lon="6.78319">
        <ele>511</ele>
        <time>2025-12-19T14:01:02Z</time>
      </trkpt>
      <trkpt lat="48.2885" lon="6.7832">
        <ele>510</ele>
        <time>2025-12-19T14:01:11Z</time>
      </trkpt>
      <trkpt lat="48.28878" lon="6.78329">
        <ele>506</ele>
        <time>2025-12-19T14:01:55Z</time>
      </trkpt>
      <trkpt lat="48.28878" lon="6.78336">
        <ele>505</ele>
        <time>2025-12-19T14:02:08Z</time>
      </trkpt>
      <trkpt lat="48.28886" lon="6.78336">
        <ele>504</ele>
        <time>2025-12-19T14:02:20Z</time>
      </trkpt>
      <trkpt lat="48.28889" lon="6.78331">
        <ele>505</ele>
        <time>2025-12-19T14:02:30Z</time>
      </trkpt>
      <trkpt lat="48.28918" lon="6.78333">
        <ele>501</ele>
        <time>2025-12-19T14:03:00Z</time>
      </trkpt>
      <trkpt lat="48.28935" lon="6.78326">
        <ele>500</ele>
        <time>2025-12-19T14:03:11Z</time>
      </trkpt>
      <trkpt lat="48.28945" lon="6.78319">
        <ele>499</ele>
        <time>2025-12-19T14:03:19Z</time>
      </trkpt>
      <trkpt lat="48.2895" lon="6.78322">
        <ele>499</ele>
        <time>2025-12-19T14:03:23Z</time>
      </trkpt>
      <trkpt lat="48.28958" lon="6.78321">
        <ele>499</ele>
        <time>2025-12-19T14:03:28Z</time>
      </trkpt>
      <trkpt lat="48.28957" lon="6.78317">
        <ele>498</ele>
        <time>2025-12-19T14:03:47Z</time>
      </trkpt>
      <trkpt lat="48.28957" lon="6.78309">
        <ele>498</ele>
        <time>2025-12-19T14:03:51Z</time>
      </trkpt>
      <trkpt lat="48.28969" lon="6.78287">
        <ele>497</ele>
        <time>2025-12-19T14:04:05Z</time>
      </trkpt>
      <trkpt lat="48.28971" lon="6.78295">
        <ele>497</ele>
        <time>2025-12-19T14:04:10Z</time>
      </trkpt>
      <trkpt lat="48.2897" lon="6.78302">
        <ele>497</ele>
        <time>2025-12-19T14:04:12Z</time>
      </trkpt>
      <trkpt lat="48.28971" lon="6.78316">
        <ele>497</ele>
        <time>2025-12-19T14:04:16Z</time>
      </trkpt>
      <trkpt lat="48.28963" lon="6.78334">
        <ele>496</ele>
        <time>2025-12-19T14:04:25Z</time>
      </trkpt>
      <trkpt lat="48.28954" lon="6.78339">
        <ele>496</ele>
        <time>2025-12-19T14:04:31Z</time>
      </trkpt>
      <trkpt lat="48.2895" lon="6.7834">
        <ele>496</ele>
        <time>2025-12-19T14:04:34Z</time>
      </trkpt>
      <trkpt lat="48.28945" lon="6.78335">
        <ele>496</ele>
        <time>2025-12-19T14:04:37Z</time>
      </trkpt>
      <trkpt lat="48.2894" lon="6.78335">
        <ele>497</ele>
        <time>2025-12-19T14:04:40Z</time>
      </trkpt>
      <trkpt lat="48.28936" lon="6.78334">
        <ele>497</ele>
        <time>2025-12-19T14:04:43Z</time>
      </trkpt>
      <trkpt lat="48.28938" lon="6.78348">
        <ele>497</ele>
        <time>2025-12-19T14:04:51Z</time>
      </trkpt>
      <trkpt lat="48.28934" lon="6.78352">
        <ele>496</ele>
        <time>2025-12-19T14:05:11Z</time>
      </trkpt>
      <trkpt lat="48.2892" lon="6.78362">
        <ele>497</ele>
        <time>2025-12-19T14:05:24Z</time>
      </trkpt>
      <trkpt lat="48.28909" lon="6.78361">
        <ele>497</ele>
        <time>2025-12-19T14:05:34Z</time>
      </trkpt>
      <trkpt lat="48.28899" lon="6.78364">
        <ele>497</ele>
        <time>2025-12-19T14:05:43Z</time>
      </trkpt>
      <trkpt lat="48.28893" lon="6.78362">
        <ele>497</ele>
        <time>2025-12-19T14:06:06Z</time>
      </trkpt>
      <trkpt lat="48.28889" lon="6.78366">
        <ele>497</ele>
        <time>2025-12-19T14:06:10Z</time>
      </trkpt>
      <trkpt lat="48.28881" lon="6.78362">
        <ele>496</ele>
        <time>2025-12-19T14:06:20Z</time>
      </trkpt>
      <trkpt lat="48.28877" lon="6.78366">
        <ele>496</ele>
        <time>2025-12-19T14:06:24Z</time>
      </trkpt>
      <trkpt lat="48.28874" lon="6.78373">
        <ele>496</ele>
        <time>2025-12-19T14:06:30Z</time>
      </trkpt>
      <trkpt lat="48.28869" lon="6.78398">
        <ele>497</ele>
        <time>2025-12-19T14:07:10Z</time>
      </trkpt>
      <trkpt lat="48.2887" lon="6.78413">
        <ele>496</ele>
        <time>2025-12-19T14:07:23Z</time>
      </trkpt>
      <trkpt lat="48.28873" lon="6.78419">
        <ele>496</ele>
        <time>2025-12-19T14:07:33Z</time>
      </trkpt>
      <trkpt lat="48.28872" lon="6.78404">
        <ele>495</ele>
        <time>2025-12-19T14:07:41Z</time>
      </trkpt>
      <trkpt lat="48.2887" lon="6.78403">
        <ele>494</ele>
        <time>2025-12-19T14:07:52Z</time>
      </trkpt>
      <trkpt lat="48.28871" lon="6.78423">
        <ele>494</ele>
        <time>2025-12-19T14:08:10Z</time>
      </trkpt>
      <trkpt lat="48.28875" lon="6.78424">
        <ele>494</ele>
        <time>2025-12-19T14:08:23Z</time>
      </trkpt>
      <trkpt lat="48.28875" lon="6.78415">
        <ele>494</ele>
        <time>2025-12-19T14:08:26Z</time>
      </trkpt>
      <trkpt lat="48.28873" lon="6.78408">
        <ele>495</ele>
        <time>2025-12-19T14:08:53Z</time>
      </trkpt>
      <trkpt lat="48.2887" lon="6.78398">
        <ele>495</ele>
        <time>2025-12-19T14:08:56Z</time>
      </trkpt>
      <trkpt lat="48.28875" lon="6.78405">
        <ele>495</ele>
        <time>2025-12-19T14:09:01Z</time>
      </trkpt>
      <trkpt lat="48.28872" lon="6.78412">
        <ele>495</ele>
        <time>2025-12-19T14:09:08Z</time>
      </trkpt>
      <trkpt lat="48.28879" lon="6.78414">
        <ele>495</ele>
        <time>2025-12-19T14:10:16Z</time>
      </trkpt>
      <trkpt lat="48.28892" lon="6.78438">
        <ele>495</ele>
        <time>2025-12-19T14:11:33Z</time>
      </trkpt>
      <trkpt lat="48.28905" lon="6.78449">
        <ele>494</ele>
        <time>2025-12-19T14:11:43Z</time>
      </trkpt>
      <trkpt lat="48.2888" lon="6.78398">
        <ele>494</ele>
        <time>2025-12-19T14:12:20Z</time>
      </trkpt>
      <trkpt lat="48.28882" lon="6.78394">
        <ele>494</ele>
        <time>2025-12-19T14:12:22Z</time>
      </trkpt>
      <trkpt lat="48.28871" lon="6.78403">
        <ele>494</ele>
        <time>2025-12-19T14:12:27Z</time>
      </trkpt>
      <trkpt lat="48.28872" lon="6.78411">
        <ele>494</ele>
        <time>2025-12-19T14:12:29Z</time>
      </trkpt>
      <trkpt lat="48.28869" lon="6.78395">
        <ele>495</ele>
        <time>2025-12-19T14:12:40Z</time>
      </trkpt>
      <trkpt lat="48.2887" lon="6.78387">
        <ele>495</ele>
        <time>2025-12-19T14:12:43Z</time>
      </trkpt>
      <trkpt lat="48.28871" lon="6.78379">
        <ele>497</ele>
        <time>2025-12-19T14:13:14Z</time>
      </trkpt>
      <trkpt lat="48.28874" lon="6.78359">
        <ele>497</ele>
        <time>2025-12-19T14:13:39Z</time>
      </trkpt>
      <trkpt lat="48.28876" lon="6.78349">
        <ele>497</ele>
        <time>2025-12-19T14:13:52Z</time>
      </trkpt>
      <trkpt lat="48.28882" lon="6.78351">
        <ele>497</ele>
        <time>2025-12-19T14:13:57Z</time>
      </trkpt>
      <trkpt lat="48.28889" lon="6.78351">
        <ele>497</ele>
        <time>2025-12-19T14:13:59Z</time>
      </trkpt>
      <trkpt lat="48.28923" lon="6.78357">
        <ele>497</ele>
        <time>2025-12-19T14:14:14Z</time>
      </trkpt>
      <trkpt lat="48.28927" lon="6.78354">
        <ele>496</ele>
        <time>2025-12-19T14:14:21Z</time>
      </trkpt>
      <trkpt lat="48.28933" lon="6.78348">
        <ele>496</ele>
        <time>2025-12-19T14:14:28Z</time>
      </trkpt>
      <trkpt lat="48.28938" lon="6.78346">
        <ele>496</ele>
        <time>2025-12-19T14:14:30Z</time>
      </trkpt>
      <trkpt lat="48.28946" lon="6.78338">
        <ele>495</ele>
        <time>2025-12-19T14:14:38Z</time>
      </trkpt>
      <trkpt lat="48.28949" lon="6.78333">
        <ele>496</ele>
        <time>2025-12-19T14:14:41Z</time>
      </trkpt>
      <trkpt lat="48.28952" lon="6.78329">
        <ele>495</ele>
        <time>2025-12-19T14:14:44Z</time>
      </trkpt>
      <trkpt lat="48.28958" lon="6.78326">
        <ele>495</ele>
        <time>2025-12-19T14:14:47Z</time>
      </trkpt>
      <trkpt lat="48.28967" lon="6.78323">
        <ele>495</ele>
        <time>2025-12-19T14:14:53Z</time>
      </trkpt>
      <trkpt lat="48.2897" lon="6.78317">
        <ele>495</ele>
        <time>2025-12-19T14:14:57Z</time>
      </trkpt>
      <trkpt lat="48.28973" lon="6.7831">
        <ele>495</ele>
        <time>2025-12-19T14:15:01Z</time>
      </trkpt>
      <trkpt lat="48.28973" lon="6.783">
        <ele>495</ele>
        <time>2025-12-19T14:15:09Z</time>
      </trkpt>
      <trkpt lat="48.28972" lon="6.78293">
        <ele>495</ele>
        <time>2025-12-19T14:15:13Z</time>
      </trkpt>
      <trkpt lat="48.28978" lon="6.78294">
        <ele>495</ele>
        <time>2025-12-19T14:15:21Z</time>
      </trkpt>
      <trkpt lat="48.28988" lon="6.78302">
        <ele>495</ele>
        <time>2025-12-19T14:15:47Z</time>
      </trkpt>
      <trkpt lat="48.28988" lon="6.7829">
        <ele>495</ele>
        <time>2025-12-19T14:16:04Z</time>
      </trkpt>
      <trkpt lat="48.28987" lon="6.78295">
        <ele>495</ele>
        <time>2025-12-19T14:17:05Z</time>
      </trkpt>
      <trkpt lat="48.28982" lon="6.78298">
        <ele>495</ele>
        <time>2025-12-19T14:17:14Z</time>
      </trkpt>
      <trkpt lat="48.28984" lon="6.78299">
        <ele>495</ele>
        <time>2025-12-19T14:17:39Z</time>
      </trkpt>
      <trkpt lat="48.28982" lon="6.78289">
        <ele>495</ele>
        <time>2025-12-19T14:18:10Z</time>
      </trkpt>
      <trkpt lat="48.28977" lon="6.78291">
        <ele>496</ele>
        <time>2025-12-19T14:18:17Z</time>
      </trkpt>
      <trkpt lat="48.28973" lon="6.78293">
        <ele>496</ele>
        <time>2025-12-19T14:18:22Z</time>
      </trkpt>
      <trkpt lat="48.28967" lon="6.78289">
        <ele>496</ele>
        <time>2025-12-19T14:18:45Z</time>
      </trkpt>
      <trkpt lat="48.28973" lon="6.78278">
        <ele>497</ele>
        <time>2025-12-19T14:19:02Z</time>
      </trkpt>
      <trkpt lat="48.2898" lon="6.78261">
        <ele>496</ele>
        <time>2025-12-19T14:19:13Z</time>
      </trkpt>
      <trkpt lat="48.28996" lon="6.78203">
        <ele>496</ele>
        <time>2025-12-19T14:19:44Z</time>
      </trkpt>
      <trkpt lat="48.29001" lon="6.78173">
        <ele>498</ele>
        <time>2025-12-19T14:20:12Z</time>
      </trkpt>
      <trkpt lat="48.29006" lon="6.78113">
        <ele>500</ele>
        <time>2025-12-19T14:20:43Z</time>
      </trkpt>
      <trkpt lat="48.29012" lon="6.78039">
        <ele>500</ele>
        <time>2025-12-19T14:21:14Z</time>
      </trkpt>
      <trkpt lat="48.29015" lon="6.78019">
        <ele>500</ele>
        <time>2025-12-19T14:21:23Z</time>
      </trkpt>
      <trkpt lat="48.29018" lon="6.78004">
        <ele>500</ele>
        <time>2025-12-19T14:21:31Z</time>
      </trkpt>
      <trkpt lat="48.2902" lon="6.77991">
        <ele>500</ele>
        <time>2025-12-19T14:21:37Z</time>
      </trkpt>
      <trkpt lat="48.29036" lon="6.77938">
        <ele>499</ele>
        <time>2025-12-19T14:22:06Z</time>
      </trkpt>
      <trkpt lat="48.29062" lon="6.77887">
        <ele>499</ele>
        <time>2025-12-19T14:22:37Z</time>
      </trkpt>
      <trkpt lat="48.29081" lon="6.77858">
        <ele>499</ele>
        <time>2025-12-19T14:22:58Z</time>
      </trkpt>
      <trkpt lat="48.29086" lon="6.77856">
        <ele>499</ele>
        <time>2025-12-19T14:23:02Z</time>
      </trkpt>
      <trkpt lat="48.29091" lon="6.77852">
        <ele>499</ele>
        <time>2025-12-19T14:23:06Z</time>
      </trkpt>
      <trkpt lat="48.29106" lon="6.77829">
        <ele>499</ele>
        <time>2025-12-19T14:23:22Z</time>
      </trkpt>
      <trkpt lat="48.29108" lon="6.77823">
        <ele>499</ele>
        <time>2025-12-19T14:23:25Z</time>
      </trkpt>
      <trkpt lat="48.29113" lon="6.77812">
        <ele>499</ele>
        <time>2025-12-19T14:23:32Z</time>
      </trkpt>
      <trkpt lat="48.29122" lon="6.77805">
        <ele>498</ele>
        <time>2025-12-19T14:23:39Z</time>
      </trkpt>
      <trkpt lat="48.29143" lon="6.77776">
        <ele>497</ele>
        <time>2025-12-19T14:24:01Z</time>
      </trkpt>
      <trkpt lat="48.29141" lon="6.7777">
        <ele>496</ele>
        <time>2025-12-19T14:24:14Z</time>
      </trkpt>
      <trkpt lat="48.29147" lon="6.7777">
        <ele>496</ele>
        <time>2025-12-19T14:24:44Z</time>
      </trkpt>
      <trkpt lat="48.29149" lon="6.77762">
        <ele>495</ele>
        <time>2025-12-19T14:24:47Z</time>
      </trkpt>
      <trkpt lat="48.29154" lon="6.77754">
        <ele>495</ele>
        <time>2025-12-19T14:24:50Z</time>
      </trkpt>
      <trkpt lat="48.29164" lon="6.77741">
        <ele>495</ele>
        <time>2025-12-19T14:24:58Z</time>
      </trkpt>
      <trkpt lat="48.29167" lon="6.77736">
        <ele>494</ele>
        <time>2025-12-19T14:25:03Z</time>
      </trkpt>
      <trkpt lat="48.2918" lon="6.77724">
        <ele>494</ele>
        <time>2025-12-19T14:25:14Z</time>
      </trkpt>
      <trkpt lat="48.29188" lon="6.77721">
        <ele>494</ele>
        <time>2025-12-19T14:25:21Z</time>
      </trkpt>
      <trkpt lat="48.29202" lon="6.7771">
        <ele>493</ele>
        <time>2025-12-19T14:25:33Z</time>
      </trkpt>
      <trkpt lat="48.29205" lon="6.77704">
        <ele>493</ele>
        <time>2025-12-19T14:25:36Z</time>
      </trkpt>
      <trkpt lat="48.2921" lon="6.77701">
        <ele>493</ele>
        <time>2025-12-19T14:25:40Z</time>
      </trkpt>
      <trkpt lat="48.29236" lon="6.77665">
        <ele>492</ele>
        <time>2025-12-19T14:26:03Z</time>
      </trkpt>
      <trkpt lat="48.29239" lon="6.77659">
        <ele>492</ele>
        <time>2025-12-19T14:26:07Z</time>
      </trkpt>
      <trkpt lat="48.29243" lon="6.77654">
        <ele>492</ele>
        <time>2025-12-19T14:26:11Z</time>
      </trkpt>
      <trkpt lat="48.29246" lon="6.77646">
        <ele>492</ele>
        <time>2025-12-19T14:26:17Z</time>
      </trkpt>
      <trkpt lat="48.2925" lon="6.77643">
        <ele>491</ele>
        <time>2025-12-19T14:26:21Z</time>
      </trkpt>
      <trkpt lat="48.29256" lon="6.77642">
        <ele>491</ele>
        <time>2025-12-19T14:26:26Z</time>
      </trkpt>
      <trkpt lat="48.29271" lon="6.77625">
        <ele>491</ele>
        <time>2025-12-19T14:26:36Z</time>
      </trkpt>
      <trkpt lat="48.29276" lon="6.77624">
        <ele>491</ele>
        <time>2025-12-19T14:26:39Z</time>
      </trkpt>
      <trkpt lat="48.2928" lon="6.77619">
        <ele>491</ele>
        <time>2025-12-19T14:26:42Z</time>
      </trkpt>
      <trkpt lat="48.29282" lon="6.77612">
        <ele>491</ele>
        <time>2025-12-19T14:26:46Z</time>
      </trkpt>
      <trkpt lat="48.29284" lon="6.77605">
        <ele>490</ele>
        <time>2025-12-19T14:26:49Z</time>
      </trkpt>
      <trkpt lat="48.29291" lon="6.77606">
        <ele>490</ele>
        <time>2025-12-19T14:26:52Z</time>
      </trkpt>
      <trkpt lat="48.29295" lon="6.77604">
        <ele>490</ele>
        <time>2025-12-19T14:26:55Z</time>
      </trkpt>
      <trkpt lat="48.29299" lon="6.77602">
        <ele>490</ele>
        <time>2025-12-19T14:26:59Z</time>
      </trkpt>
      <trkpt lat="48.29303" lon="6.77603">
        <ele>490</ele>
        <time>2025-12-19T14:27:02Z</time>
      </trkpt>
      <trkpt lat="48.29308" lon="6.776">
        <ele>490</ele>
        <time>2025-12-19T14:27:05Z</time>
      </trkpt>
      <trkpt lat="48.29312" lon="6.77595">
        <ele>490</ele>
        <time>2025-12-19T14:27:08Z</time>
      </trkpt>
      <trkpt lat="48.29316" lon="6.77596">
        <ele>490</ele>
        <time>2025-12-19T14:27:11Z</time>
      </trkpt>
      <trkpt lat="48.29327" lon="6.77593">
        <ele>490</ele>
        <time>2025-12-19T14:27:19Z</time>
      </trkpt>
      <trkpt lat="48.29329" lon="6.77587">
        <ele>489</ele>
        <time>2025-12-19T14:27:22Z</time>
      </trkpt>
      <trkpt lat="48.29337" lon="6.7758">
        <ele>489</ele>
        <time>2025-12-19T14:27:28Z</time>
      </trkpt>
      <trkpt lat="48.29342" lon="6.77577">
        <ele>489</ele>
        <time>2025-12-19T14:27:32Z</time>
      </trkpt>
      <trkpt lat="48.29345" lon="6.7757">
        <ele>489</ele>
        <time>2025-12-19T14:27:36Z</time>
      </trkpt>
      <trkpt lat="48.29354" lon="6.77571">
        <ele>489</ele>
        <time>2025-12-19T14:27:44Z</time>
      </trkpt>
      <trkpt lat="48.29357" lon="6.77566">
        <ele>489</ele>
        <time>2025-12-19T14:27:48Z</time>
      </trkpt>
      <trkpt lat="48.29357" lon="6.77559">
        <ele>489</ele>
        <time>2025-12-19T14:27:51Z</time>
      </trkpt>
      <trkpt lat="48.29353" lon="6.77547">
        <ele>489</ele>
        <time>2025-12-19T14:28:00Z</time>
      </trkpt>
      <trkpt lat="48.29367" lon="6.77521">
        <ele>489</ele>
        <time>2025-12-19T14:28:18Z</time>
      </trkpt>
      <trkpt lat="48.2937" lon="6.77513">
        <ele>488</ele>
        <time>2025-12-19T14:28:24Z</time>
      </trkpt>
      <trkpt lat="48.29378" lon="6.77501">
        <ele>488</ele>
        <time>2025-12-19T14:28:35Z</time>
      </trkpt>
      <trkpt lat="48.29378" lon="6.77495">
        <ele>488</ele>
        <time>2025-12-19T14:28:40Z</time>
      </trkpt>
      <trkpt lat="48.29383" lon="6.77492">
        <ele>488</ele>
        <time>2025-12-19T14:28:51Z</time>
      </trkpt>
      <trkpt lat="48.29387" lon="6.77488">
        <ele>488</ele>
        <time>2025-12-19T14:28:56Z</time>
      </trkpt>
      <trkpt lat="48.29392" lon="6.77491">
        <ele>488</ele>
        <time>2025-12-19T14:29:03Z</time>
      </trkpt>
      <trkpt lat="48.29402" lon="6.77466">
        <ele>487</ele>
        <time>2025-12-19T14:29:14Z</time>
      </trkpt>
      <trkpt lat="48.29405" lon="6.7746">
        <ele>487</ele>
        <time>2025-12-19T14:29:17Z</time>
      </trkpt>
      <trkpt lat="48.29411" lon="6.77449">
        <ele>487</ele>
        <time>2025-12-19T14:29:24Z</time>
      </trkpt>
      <trkpt lat="48.29411" lon="6.7744">
        <ele>487</ele>
        <time>2025-12-19T14:29:28Z</time>
      </trkpt>
      <trkpt lat="48.2941" lon="6.77434">
        <ele>487</ele>
        <time>2025-12-19T14:29:32Z</time>
      </trkpt>
      <trkpt lat="48.29411" lon="6.77428">
        <ele>487</ele>
        <time>2025-12-19T14:29:36Z</time>
      </trkpt>
      <trkpt lat="48.2941" lon="6.77412">
        <ele>487</ele>
        <time>2025-12-19T14:29:48Z</time>
      </trkpt>
      <trkpt lat="48.29414" lon="6.77411">
        <ele>487</ele>
        <time>2025-12-19T14:29:58Z</time>
      </trkpt>
      <trkpt lat="48.29422" lon="6.7741">
        <ele>487</ele>
        <time>2025-12-19T14:30:07Z</time>
      </trkpt>
      <trkpt lat="48.29422" lon="6.77402">
        <ele>487</ele>
        <time>2025-12-19T14:30:12Z</time>
      </trkpt>
      <trkpt lat="48.29421" lon="6.7738">
        <ele>487</ele>
        <time>2025-12-19T14:30:22Z</time>
      </trkpt>
      <trkpt lat="48.29419" lon="6.77373">
        <ele>487</ele>
        <time>2025-12-19T14:30:26Z</time>
      </trkpt>
      <trkpt lat="48.29416" lon="6.77364">
        <ele>487</ele>
        <time>2025-12-19T14:30:32Z</time>
      </trkpt>
      <trkpt lat="48.29413" lon="6.7736">
        <ele>487</ele>
        <time>2025-12-19T14:30:37Z</time>
      </trkpt>
      <trkpt lat="48.2941" lon="6.77344">
        <ele>487</ele>
        <time>2025-12-19T14:30:43Z</time>
      </trkpt>
      <trkpt lat="48.29416" lon="6.77316">
        <ele>486</ele>
        <time>2025-12-19T14:30:57Z</time>
      </trkpt>
      <trkpt lat="48.29416" lon="6.77307">
        <ele>486</ele>
        <time>2025-12-19T14:31:02Z</time>
      </trkpt>
      <trkpt lat="48.29415" lon="6.773">
        <ele>486</ele>
        <time>2025-12-19T14:31:06Z</time>
      </trkpt>
      <trkpt lat="48.29417" lon="6.77293">
        <ele>486</ele>
        <time>2025-12-19T14:31:09Z</time>
      </trkpt>
      <trkpt lat="48.29418" lon="6.77286">
        <ele>486</ele>
        <time>2025-12-19T14:31:13Z</time>
      </trkpt>
      <trkpt lat="48.29415" lon="6.77269">
        <ele>486</ele>
        <time>2025-12-19T14:31:22Z</time>
      </trkpt>
      <trkpt lat="48.29411" lon="6.77264">
        <ele>486</ele>
        <time>2025-12-19T14:31:26Z</time>
      </trkpt>
      <trkpt lat="48.29414" lon="6.77258">
        <ele>486</ele>
        <time>2025-12-19T14:31:34Z</time>
      </trkpt>
      <trkpt lat="48.2942" lon="6.77239">
        <ele>485</ele>
        <time>2025-12-19T14:31:50Z</time>
      </trkpt>
      <trkpt lat="48.29426" lon="6.77231">
        <ele>485</ele>
        <time>2025-12-19T14:31:57Z</time>
      </trkpt>
      <trkpt lat="48.29423" lon="6.77223">
        <ele>485</ele>
        <time>2025-12-19T14:32:04Z</time>
      </trkpt>
      <trkpt lat="48.29425" lon="6.77214">
        <ele>485</ele>
        <time>2025-12-19T14:32:36Z</time>
      </trkpt>
      <trkpt lat="48.29427" lon="6.77206">
        <ele>485</ele>
        <time>2025-12-19T14:32:45Z</time>
      </trkpt>
      <trkpt lat="48.2943" lon="6.77191">
        <ele>484</ele>
        <time>2025-12-19T14:32:53Z</time>
      </trkpt>
      <trkpt lat="48.29432" lon="6.77176">
        <ele>484</ele>
        <time>2025-12-19T14:32:59Z</time>
      </trkpt>
      <trkpt lat="48.29441" lon="6.77151">
        <ele>484</ele>
        <time>2025-12-19T14:33:15Z</time>
      </trkpt>
      <trkpt lat="48.29442" lon="6.77143">
        <ele>484</ele>
        <time>2025-12-19T14:33:19Z</time>
      </trkpt>
      <trkpt lat="48.29444" lon="6.77136">
        <ele>484</ele>
        <time>2025-12-19T14:33:23Z</time>
      </trkpt>
      <trkpt lat="48.2945" lon="6.77113">
        <ele>484</ele>
        <time>2025-12-19T14:33:37Z</time>
      </trkpt>
      <trkpt lat="48.2946" lon="6.77099">
        <ele>485</ele>
        <time>2025-12-19T14:33:54Z</time>
      </trkpt>
      <trkpt lat="48.29458" lon="6.77085">
        <ele>485</ele>
        <time>2025-12-19T14:34:02Z</time>
      </trkpt>
      <trkpt lat="48.29463" lon="6.77083">
        <ele>485</ele>
        <time>2025-12-19T14:34:34Z</time>
      </trkpt>
      <trkpt lat="48.29463" lon="6.77075">
        <ele>485</ele>
        <time>2025-12-19T14:34:41Z</time>
      </trkpt>
      <trkpt lat="48.29461" lon="6.77053">
        <ele>486</ele>
        <time>2025-12-19T14:34:55Z</time>
      </trkpt>
      <trkpt lat="48.29463" lon="6.77047">
        <ele>487</ele>
        <time>2025-12-19T14:36:05Z</time>
      </trkpt>
      <trkpt lat="48.29466" lon="6.77011">
        <ele>488</ele>
        <time>2025-12-19T14:36:26Z</time>
      </trkpt>
      <trkpt lat="48.29464" lon="6.77007">
        <ele>488</ele>
        <time>2025-12-19T14:36:33Z</time>
      </trkpt>
      <trkpt lat="48.29466" lon="6.76999">
        <ele>488</ele>
        <time>2025-12-19T14:36:40Z</time>
      </trkpt>
      <trkpt lat="48.29466" lon="6.76993">
        <ele>488</ele>
        <time>2025-12-19T14:36:45Z</time>
      </trkpt>
      <trkpt lat="48.29472" lon="6.76969">
        <ele>488</ele>
        <time>2025-12-19T14:36:55Z</time>
      </trkpt>
      <trkpt lat="48.29472" lon="6.76959">
        <ele>488</ele>
        <time>2025-12-19T14:37:00Z</time>
      </trkpt>
      <trkpt lat="48.29473" lon="6.76953">
        <ele>488</ele>
        <time>2025-12-19T14:37:04Z</time>
      </trkpt>
      <trkpt lat="48.29472" lon="6.76946">
        <ele>488</ele>
        <time>2025-12-19T14:37:08Z</time>
      </trkpt>
      <trkpt lat="48.29475" lon="6.7693">
        <ele>488</ele>
        <time>2025-12-19T14:37:16Z</time>
      </trkpt>
      <trkpt lat="48.29473" lon="6.76899">
        <ele>487</ele>
        <time>2025-12-19T14:37:28Z</time>
      </trkpt>
      <trkpt lat="48.2947" lon="6.76893">
        <ele>487</ele>
        <time>2025-12-19T14:37:31Z</time>
      </trkpt>
      <trkpt lat="48.29469" lon="6.76886">
        <ele>487</ele>
        <time>2025-12-19T14:37:34Z</time>
      </trkpt>
      <trkpt lat="48.29463" lon="6.76873">
        <ele>487</ele>
        <time>2025-12-19T14:37:41Z</time>
      </trkpt>
      <trkpt lat="48.29458" lon="6.76872">
        <ele>487</ele>
        <time>2025-12-19T14:37:44Z</time>
      </trkpt>
      <trkpt lat="48.29458" lon="6.76865">
        <ele>487</ele>
        <time>2025-12-19T14:37:47Z</time>
      </trkpt>
      <trkpt lat="48.29454" lon="6.76858">
        <ele>487</ele>
        <time>2025-12-19T14:37:51Z</time>
      </trkpt>
      <trkpt lat="48.29454" lon="6.76851">
        <ele>487</ele>
        <time>2025-12-19T14:37:54Z</time>
      </trkpt>
      <trkpt lat="48.2945" lon="6.76845">
        <ele>487</ele>
        <time>2025-12-19T14:37:58Z</time>
      </trkpt>
      <trkpt lat="48.29451" lon="6.76838">
        <ele>487</ele>
        <time>2025-12-19T14:38:01Z</time>
      </trkpt>
      <trkpt lat="48.29447" lon="6.76832">
        <ele>487</ele>
        <time>2025-12-19T14:38:05Z</time>
      </trkpt>
      <trkpt lat="48.29442" lon="6.76831">
        <ele>487</ele>
        <time>2025-12-19T14:38:08Z</time>
      </trkpt>
      <trkpt lat="48.2944" lon="6.76824">
        <ele>487</ele>
        <time>2025-12-19T14:38:12Z</time>
      </trkpt>
      <trkpt lat="48.29437" lon="6.76816">
        <ele>486</ele>
        <time>2025-12-19T14:38:18Z</time>
      </trkpt>
      <trkpt lat="48.29433" lon="6.76815">
        <ele>486</ele>
        <time>2025-12-19T14:38:22Z</time>
      </trkpt>
      <trkpt lat="48.2943" lon="6.76807">
        <ele>486</ele>
        <time>2025-12-19T14:38:31Z</time>
      </trkpt>
      <trkpt lat="48.29429" lon="6.76793">
        <ele>485</ele>
        <time>2025-12-19T14:38:39Z</time>
      </trkpt>
      <trkpt lat="48.29428" lon="6.76786">
        <ele>485</ele>
        <time>2025-12-19T14:38:43Z</time>
      </trkpt>
      <trkpt lat="48.29425" lon="6.7678">
        <ele>484</ele>
        <time>2025-12-19T14:38:47Z</time>
      </trkpt>
      <trkpt lat="48.29421" lon="6.76775">
        <ele>484</ele>
        <time>2025-12-19T14:38:51Z</time>
      </trkpt>
      <trkpt lat="48.29422" lon="6.7674">
        <ele>481</ele>
        <time>2025-12-19T14:39:18Z</time>
      </trkpt>
      <trkpt lat="48.29425" lon="6.76734">
        <ele>481</ele>
        <time>2025-12-19T14:39:22Z</time>
      </trkpt>
      <trkpt lat="48.29429" lon="6.7673">
        <ele>480</ele>
        <time>2025-12-19T14:39:25Z</time>
      </trkpt>
      <trkpt lat="48.2944" lon="6.76696">
        <ele>477</ele>
        <time>2025-12-19T14:39:43Z</time>
      </trkpt>
      <trkpt lat="48.2944" lon="6.7669">
        <ele>476</ele>
        <time>2025-12-19T14:39:47Z</time>
      </trkpt>
      <trkpt lat="48.29452" lon="6.7668">
        <ele>473</ele>
        <time>2025-12-19T14:40:16Z</time>
      </trkpt>
      <trkpt lat="48.29458" lon="6.76675">
        <ele>470</ele>
        <time>2025-12-19T14:40:26Z</time>
      </trkpt>
      <trkpt lat="48.2946" lon="6.76667">
        <ele>469</ele>
        <time>2025-12-19T14:40:34Z</time>
      </trkpt>
      <trkpt lat="48.29463" lon="6.76643">
        <ele>464</ele>
        <time>2025-12-19T14:40:48Z</time>
      </trkpt>
      <trkpt lat="48.29464" lon="6.76636">
        <ele>464</ele>
        <time>2025-12-19T14:40:51Z</time>
      </trkpt>
      <trkpt lat="48.29462" lon="6.76629">
        <ele>463</ele>
        <time>2025-12-19T14:40:55Z</time>
      </trkpt>
      <trkpt lat="48.2946" lon="6.76624">
        <ele>462</ele>
        <time>2025-12-19T14:40:58Z</time>
      </trkpt>
      <trkpt lat="48.29462" lon="6.76616">
        <ele>461</ele>
        <time>2025-12-19T14:41:02Z</time>
      </trkpt>
      <trkpt lat="48.29462" lon="6.76609">
        <ele>460</ele>
        <time>2025-12-19T14:41:06Z</time>
      </trkpt>
      <trkpt lat="48.29464" lon="6.766">
        <ele>458</ele>
        <time>2025-12-19T14:41:13Z</time>
      </trkpt>
      <trkpt lat="48.29463" lon="6.76593">
        <ele>457</ele>
        <time>2025-12-19T14:41:17Z</time>
      </trkpt>
      <trkpt lat="48.29466" lon="6.76588">
        <ele>456</ele>
        <time>2025-12-19T14:41:21Z</time>
      </trkpt>
      <trkpt lat="48.29463" lon="6.76577">
        <ele>454</ele>
        <time>2025-12-19T14:41:29Z</time>
      </trkpt>
      <trkpt lat="48.29465" lon="6.76571">
        <ele>453</ele>
        <time>2025-12-19T14:41:33Z</time>
      </trkpt>
      <trkpt lat="48.29469" lon="6.76569">
        <ele>452</ele>
        <time>2025-12-19T14:41:37Z</time>
      </trkpt>
      <trkpt lat="48.29474" lon="6.7656">
        <ele>450</ele>
        <time>2025-12-19T14:41:45Z</time>
      </trkpt>
      <trkpt lat="48.29477" lon="6.76554">
        <ele>448</ele>
        <time>2025-12-19T14:41:50Z</time>
      </trkpt>
      <trkpt lat="48.29483" lon="6.76544">
        <ele>446</ele>
        <time>2025-12-19T14:41:58Z</time>
      </trkpt>
      <trkpt lat="48.29486" lon="6.76539">
        <ele>445</ele>
        <time>2025-12-19T14:42:02Z</time>
      </trkpt>
      <trkpt lat="48.29492" lon="6.76541">
        <ele>444</ele>
        <time>2025-12-19T14:42:05Z</time>
      </trkpt>
      <trkpt lat="48.29496" lon="6.76537">
        <ele>442</ele>
        <time>2025-12-19T14:42:10Z</time>
      </trkpt>
      <trkpt lat="48.29497" lon="6.76544">
        <ele>440</ele>
        <time>2025-12-19T14:42:27Z</time>
      </trkpt>
      <trkpt lat="48.29495" lon="6.76539">
        <ele>439</ele>
        <time>2025-12-19T14:42:39Z</time>
      </trkpt>
      <trkpt lat="48.29497" lon="6.76529">
        <ele>439</ele>
        <time>2025-12-19T14:42:42Z</time>
      </trkpt>
      <trkpt lat="48.29507" lon="6.76521">
        <ele>437</ele>
        <time>2025-12-19T14:42:53Z</time>
      </trkpt>
      <trkpt lat="48.29508" lon="6.7651">
        <ele>435</ele>
        <time>2025-12-19T14:43:05Z</time>
      </trkpt>
      <trkpt lat="48.2952" lon="6.76496">
        <ele>432</ele>
        <time>2025-12-19T14:43:18Z</time>
      </trkpt>
      <trkpt lat="48.29524" lon="6.76484">
        <ele>429</ele>
        <time>2025-12-19T14:43:26Z</time>
      </trkpt>
      <trkpt lat="48.29523" lon="6.76469">
        <ele>428</ele>
        <time>2025-12-19T14:43:34Z</time>
      </trkpt>
      <trkpt lat="48.2953" lon="6.76445">
        <ele>423</ele>
        <time>2025-12-19T14:43:54Z</time>
      </trkpt>
      <trkpt lat="48.29534" lon="6.76442">
        <ele>422</ele>
        <time>2025-12-19T14:43:58Z</time>
      </trkpt>
      <trkpt lat="48.2954" lon="6.76426">
        <ele>419</ele>
        <time>2025-12-19T14:44:10Z</time>
      </trkpt>
      <trkpt lat="48.29537" lon="6.76421">
        <ele>418</ele>
        <time>2025-12-19T14:44:14Z</time>
      </trkpt>
      <trkpt lat="48.29537" lon="6.76407">
        <ele>415</ele>
        <time>2025-12-19T14:44:24Z</time>
      </trkpt>
      <trkpt lat="48.2954" lon="6.76401">
        <ele>414</ele>
        <time>2025-12-19T14:44:29Z</time>
      </trkpt>
      <trkpt lat="48.29556" lon="6.76389">
        <ele>412</ele>
        <time>2025-12-19T14:44:38Z</time>
      </trkpt>
      <trkpt lat="48.29558" lon="6.76384">
        <ele>411</ele>
        <time>2025-12-19T14:44:42Z</time>
      </trkpt>
      <trkpt lat="48.29564" lon="6.7639">
        <ele>410</ele>
        <time>2025-12-19T14:45:19Z</time>
      </trkpt>
      <trkpt lat="48.29563" lon="6.76385">
        <ele>411</ele>
        <time>2025-12-19T14:46:09Z</time>
      </trkpt>
      <trkpt lat="48.29568" lon="6.76383">
        <ele>411</ele>
        <time>2025-12-19T14:46:27Z</time>
      </trkpt>
      <trkpt lat="48.29571" lon="6.76377">
        <ele>410</ele>
        <time>2025-12-19T14:46:31Z</time>
      </trkpt>
      <trkpt lat="48.29571" lon="6.76364">
        <ele>410</ele>
        <time>2025-12-19T14:46:39Z</time>
      </trkpt>
      <trkpt lat="48.29574" lon="6.76359">
        <ele>410</ele>
        <time>2025-12-19T14:46:41Z</time>
      </trkpt>
      <trkpt lat="48.29575" lon="6.76352">
        <ele>410</ele>
        <time>2025-12-19T14:46:44Z</time>
      </trkpt>
      <trkpt lat="48.29574" lon="6.76344">
        <ele>410</ele>
        <time>2025-12-19T14:46:47Z</time>
      </trkpt>
      <trkpt lat="48.29573" lon="6.76321">
        <ele>409</ele>
        <time>2025-12-19T14:46:56Z</time>
      </trkpt>
      <trkpt lat="48.29572" lon="6.76313">
        <ele>409</ele>
        <time>2025-12-19T14:47:00Z</time>
      </trkpt>
      <trkpt lat="48.29572" lon="6.76305">
        <ele>409</ele>
        <time>2025-12-19T14:47:04Z</time>
      </trkpt>
      <trkpt lat="48.29573" lon="6.76298">
        <ele>409</ele>
        <time>2025-12-19T14:47:08Z</time>
      </trkpt>
      <trkpt lat="48.29574" lon="6.76283">
        <ele>409</ele>
        <time>2025-12-19T14:47:15Z</time>
      </trkpt>
      <trkpt lat="48.29571" lon="6.76276">
        <ele>409</ele>
        <time>2025-12-19T14:47:20Z</time>
      </trkpt>
      <trkpt lat="48.2957" lon="6.76269">
        <ele>409</ele>
        <time>2025-12-19T14:47:24Z</time>
      </trkpt>
      <trkpt lat="48.29568" lon="6.76262">
        <ele>409</ele>
        <time>2025-12-19T14:47:29Z</time>
      </trkpt>
      <trkpt lat="48.29563" lon="6.76255">
        <ele>409</ele>
        <time>2025-12-19T14:47:32Z</time>
      </trkpt>
      <trkpt lat="48.29546" lon="6.76213">
        <ele>409</ele>
        <time>2025-12-19T14:47:59Z</time>
      </trkpt>
      <trkpt lat="48.29542" lon="6.76185">
        <ele>409</ele>
        <time>2025-12-19T14:48:12Z</time>
      </trkpt>
      <trkpt lat="48.29534" lon="6.76177">
        <ele>408</ele>
        <time>2025-12-19T14:48:19Z</time>
      </trkpt>
      <trkpt lat="48.29529" lon="6.76164">
        <ele>408</ele>
        <time>2025-12-19T14:48:27Z</time>
      </trkpt>
      <trkpt lat="48.29525" lon="6.76159">
        <ele>408</ele>
        <time>2025-12-19T14:48:31Z</time>
      </trkpt>
      <trkpt lat="48.29523" lon="6.7615">
        <ele>408</ele>
        <time>2025-12-19T14:48:35Z</time>
      </trkpt>
      <trkpt lat="48.2952" lon="6.76146">
        <ele>408</ele>
        <time>2025-12-19T14:48:38Z</time>
      </trkpt>
      <trkpt lat="48.29516" lon="6.76143">
        <ele>407</ele>
        <time>2025-12-19T14:48:42Z</time>
      </trkpt>
      <trkpt lat="48.29515" lon="6.76137">
        <ele>407</ele>
        <time>2025-12-19T14:48:46Z</time>
      </trkpt>
      <trkpt lat="48.29503" lon="6.76119">
        <ele>407</ele>
        <time>2025-12-19T14:48:58Z</time>
      </trkpt>
      <trkpt lat="48.29502" lon="6.76112">
        <ele>406</ele>
        <time>2025-12-19T14:49:01Z</time>
      </trkpt>
      <trkpt lat="48.295" lon="6.76106">
        <ele>406</ele>
        <time>2025-12-19T14:49:05Z</time>
      </trkpt>
      <trkpt lat="48.29492" lon="6.76097">
        <ele>406</ele>
        <time>2025-12-19T14:49:10Z</time>
      </trkpt>
      <trkpt lat="48.29467" lon="6.7606">
        <ele>405</ele>
        <time>2025-12-19T14:49:31Z</time>
      </trkpt>
      <trkpt lat="48.29466" lon="6.76054">
        <ele>405</ele>
        <time>2025-12-19T14:49:34Z</time>
      </trkpt>
      <trkpt lat="48.29458" lon="6.76039">
        <ele>404</ele>
        <time>2025-12-19T14:49:44Z</time>
      </trkpt>
      <trkpt lat="48.29457" lon="6.76031">
        <ele>404</ele>
        <time>2025-12-19T14:49:47Z</time>
      </trkpt>
      <trkpt lat="48.29451" lon="6.76025">
        <ele>404</ele>
        <time>2025-12-19T14:49:52Z</time>
      </trkpt>
      <trkpt lat="48.2945" lon="6.76017">
        <ele>404</ele>
        <time>2025-12-19T14:49:55Z</time>
      </trkpt>
      <trkpt lat="48.29445" lon="6.76008">
        <ele>404</ele>
        <time>2025-12-19T14:50:00Z</time>
      </trkpt>
      <trkpt lat="48.2944" lon="6.76006">
        <ele>404</ele>
        <time>2025-12-19T14:50:03Z</time>
      </trkpt>
      <trkpt lat="48.2943" lon="6.75992">
        <ele>403</ele>
        <time>2025-12-19T14:50:12Z</time>
      </trkpt>
      <trkpt lat="48.29429" lon="6.75985">
        <ele>403</ele>
        <time>2025-12-19T14:50:15Z</time>
      </trkpt>
      <trkpt lat="48.29426" lon="6.7598">
        <ele>403</ele>
        <time>2025-12-19T14:50:18Z</time>
      </trkpt>
      <trkpt lat="48.29422" lon="6.75976">
        <ele>403</ele>
        <time>2025-12-19T14:50:21Z</time>
      </trkpt>
      <trkpt lat="48.2942" lon="6.7597">
        <ele>403</ele>
        <time>2025-12-19T14:50:24Z</time>
      </trkpt>
      <trkpt lat="48.29416" lon="6.75964">
        <ele>403</ele>
        <time>2025-12-19T14:50:27Z</time>
      </trkpt>
      <trkpt lat="48.29415" lon="6.75958">
        <ele>403</ele>
        <time>2025-12-19T14:50:31Z</time>
      </trkpt>
      <trkpt lat="48.2941" lon="6.75955">
        <ele>402</ele>
        <time>2025-12-19T14:50:38Z</time>
      </trkpt>
      <trkpt lat="48.29402" lon="6.75937">
        <ele>402</ele>
        <time>2025-12-19T14:50:48Z</time>
      </trkpt>
      <trkpt lat="48.29404" lon="6.75929">
        <ele>402</ele>
        <time>2025-12-19T14:50:50Z</time>
      </trkpt>
      <trkpt lat="48.29401" lon="6.75924">
        <ele>401</ele>
        <time>2025-12-19T14:50:52Z</time>
      </trkpt>
      <trkpt lat="48.29395" lon="6.75915">
        <ele>401</ele>
        <time>2025-12-19T14:50:57Z</time>
      </trkpt>
      <trkpt lat="48.29393" lon="6.75908">
        <ele>401</ele>
        <time>2025-12-19T14:51:00Z</time>
      </trkpt>
      <trkpt lat="48.2939" lon="6.75901">
        <ele>401</ele>
        <time>2025-12-19T14:51:05Z</time>
      </trkpt>
      <trkpt lat="48.29385" lon="6.75903">
        <ele>401</ele>
        <time>2025-12-19T14:51:10Z</time>
      </trkpt>
      <trkpt lat="48.29382" lon="6.75897">
        <ele>401</ele>
        <time>2025-12-19T14:51:18Z</time>
      </trkpt>
      <trkpt lat="48.29364" lon="6.75896">
        <ele>400</ele>
        <time>2025-12-19T14:51:45Z</time>
      </trkpt>
      <trkpt lat="48.29373" lon="6.75907">
        <ele>400</ele>
        <time>2025-12-19T14:51:50Z</time>
      </trkpt>
      <trkpt lat="48.2938" lon="6.75904">
        <ele>401</ele>
        <time>2025-12-19T14:51:53Z</time>
      </trkpt>
      <trkpt lat="48.29385" lon="6.75902">
        <ele>401</ele>
        <time>2025-12-19T14:51:55Z</time>
      </trkpt>
      <trkpt lat="48.29385" lon="6.75895">
        <ele>400</ele>
        <time>2025-12-19T14:52:02Z</time>
      </trkpt>
      <trkpt lat="48.2938" lon="6.75885">
        <ele>400</ele>
        <time>2025-12-19T14:52:28Z</time>
      </trkpt>
      <trkpt lat="48.29378" lon="6.75865">
        <ele>400</ele>
        <time>2025-12-19T14:52:42Z</time>
      </trkpt>
      <trkpt lat="48.29378" lon="6.75859">
        <ele>400</ele>
        <time>2025-12-19T14:52:45Z</time>
      </trkpt>
      <trkpt lat="48.29383" lon="6.75856">
        <ele>399</ele>
        <time>2025-12-19T14:52:57Z</time>
      </trkpt>
      <trkpt lat="48.29384" lon="6.75852">
        <ele>399</ele>
        <time>2025-12-19T14:53:20Z</time>
      </trkpt>
      <trkpt lat="48.29376" lon="6.75845">
        <ele>399</ele>
        <time>2025-12-19T14:53:27Z</time>
      </trkpt>
      <trkpt lat="48.29375" lon="6.75824">
        <ele>399</ele>
        <time>2025-12-19T14:53:31Z</time>
      </trkpt>
      <trkpt lat="48.29374" lon="6.75817">
        <ele>399</ele>
        <time>2025-12-19T14:53:32Z</time>
      </trkpt>
      <trkpt lat="48.29367" lon="6.75783">
        <ele>399</ele>
        <time>2025-12-19T14:53:38Z</time>
      </trkpt>
      <trkpt lat="48.29366" lon="6.7577">
        <ele>399</ele>
        <time>2025-12-19T14:53:43Z</time>
      </trkpt>
      <trkpt lat="48.29371" lon="6.75767">
        <ele>399</ele>
        <time>2025-12-19T14:53:50Z</time>
      </trkpt>
      <trkpt lat="48.29373" lon="6.75761">
        <ele>398</ele>
        <time>2025-12-19T14:53:53Z</time>
      </trkpt>
      <trkpt lat="48.29376" lon="6.75756">
        <ele>397</ele>
        <time>2025-12-19T14:53:59Z</time>
      </trkpt>
      <trkpt lat="48.29374" lon="6.75749">
        <ele>397</ele>
        <time>2025-12-19T14:54:01Z</time>
      </trkpt>
      <trkpt lat="48.29368" lon="6.75745">
        <ele>398</ele>
        <time>2025-12-19T14:54:04Z</time>
      </trkpt>
      <trkpt lat="48.2936" lon="6.75726">
        <ele>398</ele>
        <time>2025-12-19T14:54:13Z</time>
      </trkpt>
      <trkpt lat="48.29358" lon="6.75706">
        <ele>398</ele>
        <time>2025-12-19T14:54:26Z</time>
      </trkpt>
      <trkpt lat="48.29358" lon="6.75691">
        <ele>398</ele>
        <time>2025-12-19T14:54:33Z</time>
      </trkpt>
      <trkpt lat="48.29356" lon="6.75673">
        <ele>398</ele>
        <time>2025-12-19T14:54:42Z</time>
      </trkpt>
      <trkpt lat="48.29357" lon="6.75664">
        <ele>397</ele>
        <time>2025-12-19T14:54:47Z</time>
      </trkpt>
      <trkpt lat="48.29356" lon="6.75656">
        <ele>397</ele>
        <time>2025-12-19T14:54:49Z</time>
      </trkpt>
      <trkpt lat="48.29354" lon="6.7565">
        <ele>397</ele>
        <time>2025-12-19T14:54:52Z</time>
      </trkpt>
      <trkpt lat="48.29353" lon="6.75618">
        <ele>397</ele>
        <time>2025-12-19T14:55:05Z</time>
      </trkpt>
      <trkpt lat="48.29352" lon="6.7561">
        <ele>397</ele>
        <time>2025-12-19T14:55:08Z</time>
      </trkpt>
      <trkpt lat="48.29352" lon="6.75571">
        <ele>397</ele>
        <time>2025-12-19T14:55:29Z</time>
      </trkpt>
      <trkpt lat="48.29347" lon="6.75568">
        <ele>397</ele>
        <time>2025-12-19T14:55:32Z</time>
      </trkpt>
      <trkpt lat="48.29338" lon="6.75548">
        <ele>397</ele>
        <time>2025-12-19T14:55:40Z</time>
      </trkpt>
      <trkpt lat="48.29326" lon="6.75533">
        <ele>397</ele>
        <time>2025-12-19T14:55:50Z</time>
      </trkpt>
      <trkpt lat="48.29325" lon="6.75527">
        <ele>397</ele>
        <time>2025-12-19T14:55:53Z</time>
      </trkpt>
      <trkpt lat="48.29324" lon="6.75518">
        <ele>397</ele>
        <time>2025-12-19T14:55:56Z</time>
      </trkpt>
      <trkpt lat="48.29321" lon="6.7551">
        <ele>397</ele>
        <time>2025-12-19T14:56:00Z</time>
      </trkpt>
      <trkpt lat="48.29312" lon="6.75501">
        <ele>397</ele>
        <time>2025-12-19T14:56:07Z</time>
      </trkpt>
      <trkpt lat="48.29303" lon="6.75491">
        <ele>396</ele>
        <time>2025-12-19T14:56:14Z</time>
      </trkpt>
      <trkpt lat="48.29292" lon="6.75479">
        <ele>396</ele>
        <time>2025-12-19T14:56:24Z</time>
      </trkpt>
      <trkpt lat="48.29283" lon="6.75461">
        <ele>396</ele>
        <time>2025-12-19T14:56:35Z</time>
      </trkpt>
      <trkpt lat="48.29276" lon="6.75438">
        <ele>396</ele>
        <time>2025-12-19T14:56:46Z</time>
      </trkpt>
      <trkpt lat="48.29273" lon="6.75432">
        <ele>396</ele>
        <time>2025-12-19T14:56:49Z</time>
      </trkpt>
      <trkpt lat="48.29267" lon="6.75425">
        <ele>396</ele>
        <time>2025-12-19T14:56:54Z</time>
      </trkpt>
      <trkpt lat="48.29265" lon="6.75419">
        <ele>396</ele>
        <time>2025-12-19T14:56:57Z</time>
      </trkpt>
      <trkpt lat="48.29261" lon="6.75416">
        <ele>396</ele>
        <time>2025-12-19T14:57:00Z</time>
      </trkpt>
      <trkpt lat="48.29257" lon="6.75415">
        <ele>396</ele>
        <time>2025-12-19T14:57:03Z</time>
      </trkpt>
      <trkpt lat="48.29251" lon="6.75404">
        <ele>396</ele>
        <time>2025-12-19T14:57:09Z</time>
      </trkpt>
      <trkpt lat="48.29247" lon="6.754">
        <ele>396</ele>
        <time>2025-12-19T14:57:12Z</time>
      </trkpt>
      <trkpt lat="48.29243" lon="6.75387">
        <ele>396</ele>
        <time>2025-12-19T14:57:18Z</time>
      </trkpt>
      <trkpt lat="48.2924" lon="6.7538">
        <ele>396</ele>
        <time>2025-12-19T14:57:22Z</time>
      </trkpt>
      <trkpt lat="48.29235" lon="6.75381">
        <ele>396</ele>
        <time>2025-12-19T14:57:27Z</time>
      </trkpt>
      <trkpt lat="48.29234" lon="6.75371">
        <ele>396</ele>
        <time>2025-12-19T14:57:42Z</time>
      </trkpt>
      <trkpt lat="48.29213" lon="6.75328">
        <ele>396</ele>
        <time>2025-12-19T14:58:08Z</time>
      </trkpt>
      <trkpt lat="48.29212" lon="6.7532">
        <ele>396</ele>
        <time>2025-12-19T14:58:12Z</time>
      </trkpt>
      <trkpt lat="48.29204" lon="6.7531">
        <ele>395</ele>
        <time>2025-12-19T14:58:19Z</time>
      </trkpt>
      <trkpt lat="48.29197" lon="6.75301">
        <ele>395</ele>
        <time>2025-12-19T14:58:26Z</time>
      </trkpt>
      <trkpt lat="48.29192" lon="6.75298">
        <ele>395</ele>
        <time>2025-12-19T14:58:29Z</time>
      </trkpt>
      <trkpt lat="48.2919" lon="6.75289">
        <ele>395</ele>
        <time>2025-12-19T14:58:33Z</time>
      </trkpt>
      <trkpt lat="48.29188" lon="6.75283">
        <ele>395</ele>
        <time>2025-12-19T14:58:36Z</time>
      </trkpt>
      <trkpt lat="48.29175" lon="6.75262">
        <ele>394</ele>
        <time>2025-12-19T14:58:49Z</time>
      </trkpt>
      <trkpt lat="48.29173" lon="6.75256">
        <ele>394</ele>
        <time>2025-12-19T14:58:52Z</time>
      </trkpt>
      <trkpt lat="48.29168" lon="6.75254">
        <ele>394</ele>
        <time>2025-12-19T14:58:55Z</time>
      </trkpt>
      <trkpt lat="48.29157" lon="6.75227">
        <ele>394</ele>
        <time>2025-12-19T14:59:09Z</time>
      </trkpt>
      <trkpt lat="48.29155" lon="6.75221">
        <ele>394</ele>
        <time>2025-12-19T14:59:12Z</time>
      </trkpt>
      <trkpt lat="48.29144" lon="6.75205">
        <ele>393</ele>
        <time>2025-12-19T14:59:21Z</time>
      </trkpt>
      <trkpt lat="48.2912" lon="6.7518">
        <ele>393</ele>
        <time>2025-12-19T14:59:41Z</time>
      </trkpt>
      <trkpt lat="48.29118" lon="6.75174">
        <ele>393</ele>
        <time>2025-12-19T14:59:44Z</time>
      </trkpt>
      <trkpt lat="48.29113" lon="6.75159">
        <ele>392</ele>
        <time>2025-12-19T14:59:52Z</time>
      </trkpt>
      <trkpt lat="48.29094" lon="6.75131">
        <ele>392</ele>
        <time>2025-12-19T15:00:12Z</time>
      </trkpt>
      <trkpt lat="48.29088" lon="6.75122">
        <ele>392</ele>
        <time>2025-12-19T15:00:17Z</time>
      </trkpt>
      <trkpt lat="48.29074" lon="6.75093">
        <ele>392</ele>
        <time>2025-12-19T15:00:35Z</time>
      </trkpt>
      <trkpt lat="48.29073" lon="6.75086">
        <ele>392</ele>
        <time>2025-12-19T15:00:38Z</time>
      </trkpt>
      <trkpt lat="48.29052" lon="6.75045">
        <ele>391</ele>
        <time>2025-12-19T15:01:05Z</time>
      </trkpt>
      <trkpt lat="48.2905" lon="6.75036">
        <ele>391</ele>
        <time>2025-12-19T15:01:15Z</time>
      </trkpt>
      <trkpt lat="48.29035" lon="6.75003">
        <ele>391</ele>
        <time>2025-12-19T15:01:30Z</time>
      </trkpt>
      <trkpt lat="48.29031" lon="6.74999">
        <ele>391</ele>
        <time>2025-12-19T15:01:33Z</time>
      </trkpt>
      <trkpt lat="48.29029" lon="6.74986">
        <ele>390</ele>
        <time>2025-12-19T15:01:38Z</time>
      </trkpt>
      <trkpt lat="48.29028" lon="6.74979">
        <ele>390</ele>
        <time>2025-12-19T15:01:41Z</time>
      </trkpt>
      <trkpt lat="48.29022" lon="6.74965">
        <ele>390</ele>
        <time>2025-12-19T15:01:49Z</time>
      </trkpt>
      <trkpt lat="48.29011" lon="6.74916">
        <ele>389</ele>
        <time>2025-12-19T15:02:12Z</time>
      </trkpt>
      <trkpt lat="48.29017" lon="6.74926">
        <ele>390</ele>
        <time>2025-12-19T15:02:31Z</time>
      </trkpt>
      <trkpt lat="48.29019" lon="6.74931">
        <ele>390</ele>
        <time>2025-12-19T15:02:35Z</time>
      </trkpt>
      <trkpt lat="48.29014" lon="6.74929">
        <ele>390</ele>
        <time>2025-12-19T15:02:57Z</time>
      </trkpt>
      <trkpt lat="48.29013" lon="6.74916">
        <ele>389</ele>
        <time>2025-12-19T15:03:03Z</time>
      </trkpt>
      <trkpt lat="48.28999" lon="6.7485">
        <ele>388</ele>
        <time>2025-12-19T15:03:36Z</time>
      </trkpt>
      <trkpt lat="48.28983" lon="6.74781">
        <ele>388</ele>
        <time>2025-12-19T15:04:09Z</time>
      </trkpt>
      <trkpt lat="48.28965" lon="6.74712">
        <ele>388</ele>
        <time>2025-12-19T15:04:39Z</time>
      </trkpt>
      <trkpt lat="48.28956" lon="6.74677">
        <ele>388</ele>
        <time>2025-12-19T15:04:57Z</time>
      </trkpt>
      <trkpt lat="48.28952" lon="6.74665">
        <ele>388</ele>
        <time>2025-12-19T15:05:04Z</time>
      </trkpt>
      <trkpt lat="48.28951" lon="6.74656">
        <ele>388</ele>
        <time>2025-12-19T15:05:08Z</time>
      </trkpt>
      <trkpt lat="48.28946" lon="6.74644">
        <ele>388</ele>
        <time>2025-12-19T15:05:15Z</time>
      </trkpt>
      <trkpt lat="48.28944" lon="6.74636">
        <ele>387</ele>
        <time>2025-12-19T15:05:19Z</time>
      </trkpt>
      <trkpt lat="48.28939" lon="6.74622">
        <ele>387</ele>
        <time>2025-12-19T15:05:27Z</time>
      </trkpt>
      <trkpt lat="48.28938" lon="6.74615">
        <ele>387</ele>
        <time>2025-12-19T15:05:30Z</time>
      </trkpt>
      <trkpt lat="48.28938" lon="6.74607">
        <ele>387</ele>
        <time>2025-12-19T15:05:33Z</time>
      </trkpt>
      <trkpt lat="48.28926" lon="6.74556">
        <ele>386</ele>
        <time>2025-12-19T15:05:58Z</time>
      </trkpt>
      <trkpt lat="48.28926" lon="6.74549">
        <ele>386</ele>
        <time>2025-12-19T15:06:01Z</time>
      </trkpt>
      <trkpt lat="48.28922" lon="6.74545">
        <ele>386</ele>
        <time>2025-12-19T15:06:04Z</time>
      </trkpt>
      <trkpt lat="48.28917" lon="6.74518">
        <ele>386</ele>
        <time>2025-12-19T15:06:17Z</time>
      </trkpt>
      <trkpt lat="48.28917" lon="6.74507">
        <ele>386</ele>
        <time>2025-12-19T15:06:22Z</time>
      </trkpt>
      <trkpt lat="48.28919" lon="6.74501">
        <ele>386</ele>
        <time>2025-12-19T15:06:25Z</time>
      </trkpt>
      <trkpt lat="48.28914" lon="6.74478">
        <ele>386</ele>
        <time>2025-12-19T15:06:36Z</time>
      </trkpt>
      <trkpt lat="48.28916" lon="6.74471">
        <ele>386</ele>
        <time>2025-12-19T15:06:39Z</time>
      </trkpt>
      <trkpt lat="48.28913" lon="6.74427">
        <ele>385</ele>
        <time>2025-12-19T15:07:00Z</time>
      </trkpt>
      <trkpt lat="48.28913" lon="6.7442">
        <ele>385</ele>
        <time>2025-12-19T15:07:04Z</time>
      </trkpt>
      <trkpt lat="48.28912" lon="6.74413">
        <ele>385</ele>
        <time>2025-12-19T15:07:08Z</time>
      </trkpt>
      <trkpt lat="48.28914" lon="6.744">
        <ele>384</ele>
        <time>2025-12-19T15:07:14Z</time>
      </trkpt>
      <trkpt lat="48.28914" lon="6.74392">
        <ele>384</ele>
        <time>2025-12-19T15:07:18Z</time>
      </trkpt>
      <trkpt lat="48.28912" lon="6.74384">
        <ele>384</ele>
        <time>2025-12-19T15:07:22Z</time>
      </trkpt>
      <trkpt lat="48.28912" lon="6.74369">
        <ele>384</ele>
        <time>2025-12-19T15:07:29Z</time>
      </trkpt>
      <trkpt lat="48.28914" lon="6.74363">
        <ele>384</ele>
        <time>2025-12-19T15:07:33Z</time>
      </trkpt>
      <trkpt lat="48.28913" lon="6.74356">
        <ele>384</ele>
        <time>2025-12-19T15:07:37Z</time>
      </trkpt>
      <trkpt lat="48.2891" lon="6.74349">
        <ele>384</ele>
        <time>2025-12-19T15:07:41Z</time>
      </trkpt>
      <trkpt lat="48.2891" lon="6.74332">
        <ele>384</ele>
        <time>2025-12-19T15:07:49Z</time>
      </trkpt>
      <trkpt lat="48.28912" lon="6.74326">
        <ele>384</ele>
        <time>2025-12-19T15:07:52Z</time>
      </trkpt>
      <trkpt lat="48.28909" lon="6.74318">
        <ele>383</ele>
        <time>2025-12-19T15:07:56Z</time>
      </trkpt>
      <trkpt lat="48.28908" lon="6.7429">
        <ele>383</ele>
        <time>2025-12-19T15:08:11Z</time>
      </trkpt>
      <trkpt lat="48.28905" lon="6.74284">
        <ele>383</ele>
        <time>2025-12-19T15:08:14Z</time>
      </trkpt>
      <trkpt lat="48.28901" lon="6.74262">
        <ele>383</ele>
        <time>2025-12-19T15:08:24Z</time>
      </trkpt>
      <trkpt lat="48.28897" lon="6.74252">
        <ele>383</ele>
        <time>2025-12-19T15:08:29Z</time>
      </trkpt>
      <trkpt lat="48.28889" lon="6.74212">
        <ele>382</ele>
        <time>2025-12-19T15:08:49Z</time>
      </trkpt>
      <trkpt lat="48.28887" lon="6.74205">
        <ele>382</ele>
        <time>2025-12-19T15:08:53Z</time>
      </trkpt>
      <trkpt lat="48.28887" lon="6.74196">
        <ele>382</ele>
        <time>2025-12-19T15:08:57Z</time>
      </trkpt>
      <trkpt lat="48.28884" lon="6.7419">
        <ele>381</ele>
        <time>2025-12-19T15:09:01Z</time>
      </trkpt>
      <trkpt lat="48.2888" lon="6.74156">
        <ele>381</ele>
        <time>2025-12-19T15:09:18Z</time>
      </trkpt>
      <trkpt lat="48.28874" lon="6.74139">
        <ele>381</ele>
        <time>2025-12-19T15:09:26Z</time>
      </trkpt>
      <trkpt lat="48.2887" lon="6.74109">
        <ele>381</ele>
        <time>2025-12-19T15:09:40Z</time>
      </trkpt>
      <trkpt lat="48.28868" lon="6.74103">
        <ele>381</ele>
        <time>2025-12-19T15:09:43Z</time>
      </trkpt>
      <trkpt lat="48.28867" lon="6.74097">
        <ele>381</ele>
        <time>2025-12-19T15:09:46Z</time>
      </trkpt>
      <trkpt lat="48.28864" lon="6.74091">
        <ele>381</ele>
        <time>2025-12-19T15:09:49Z</time>
      </trkpt>
      <trkpt lat="48.28864" lon="6.74084">
        <ele>381</ele>
        <time>2025-12-19T15:09:53Z</time>
      </trkpt>
      <trkpt lat="48.28864" lon="6.74076">
        <ele>381</ele>
        <time>2025-12-19T15:09:57Z</time>
      </trkpt>
      <trkpt lat="48.28862" lon="6.7407">
        <ele>381</ele>
        <time>2025-12-19T15:10:00Z</time>
      </trkpt>
      <trkpt lat="48.2886" lon="6.74064">
        <ele>381</ele>
        <time>2025-12-19T15:10:03Z</time>
      </trkpt>
      <trkpt lat="48.28854" lon="6.74">
        <ele>380</ele>
        <time>2025-12-19T15:10:34Z</time>
      </trkpt>
      <trkpt lat="48.28854" lon="6.73993">
        <ele>380</ele>
        <time>2025-12-19T15:10:38Z</time>
      </trkpt>
      <trkpt lat="48.28853" lon="6.73986">
        <ele>380</ele>
        <time>2025-12-19T15:10:41Z</time>
      </trkpt>
      <trkpt lat="48.28853" lon="6.73977">
        <ele>380</ele>
        <time>2025-12-19T15:10:45Z</time>
      </trkpt>
      <trkpt lat="48.28852" lon="6.7397">
        <ele>380</ele>
        <time>2025-12-19T15:10:49Z</time>
      </trkpt>
      <trkpt lat="48.28851" lon="6.73926">
        <ele>379</ele>
        <time>2025-12-19T15:11:10Z</time>
      </trkpt>
      <trkpt lat="48.28848" lon="6.73916">
        <ele>379</ele>
        <time>2025-12-19T15:11:15Z</time>
      </trkpt>
      <trkpt lat="48.28849" lon="6.73909">
        <ele>379</ele>
        <time>2025-12-19T15:11:18Z</time>
      </trkpt>
      <trkpt lat="48.28847" lon="6.73902">
        <ele>379</ele>
        <time>2025-12-19T15:11:21Z</time>
      </trkpt>
      <trkpt lat="48.28847" lon="6.73896">
        <ele>379</ele>
        <time>2025-12-19T15:11:25Z</time>
      </trkpt>
      <trkpt lat="48.28848" lon="6.73889">
        <ele>379</ele>
        <time>2025-12-19T15:11:29Z</time>
      </trkpt>
      <trkpt lat="48.28842" lon="6.7387">
        <ele>379</ele>
        <time>2025-12-19T15:11:39Z</time>
      </trkpt>
      <trkpt lat="48.28841" lon="6.73847">
        <ele>379</ele>
        <time>2025-12-19T15:11:49Z</time>
      </trkpt>
      <trkpt lat="48.28839" lon="6.73841">
        <ele>379</ele>
        <time>2025-12-19T15:11:52Z</time>
      </trkpt>
      <trkpt lat="48.28839" lon="6.73827">
        <ele>379</ele>
        <time>2025-12-19T15:11:58Z</time>
      </trkpt>
      <trkpt lat="48.28838" lon="6.7382">
        <ele>379</ele>
        <time>2025-12-19T15:12:01Z</time>
      </trkpt>
      <trkpt lat="48.28835" lon="6.73815">
        <ele>379</ele>
        <time>2025-12-19T15:12:04Z</time>
      </trkpt>
      <trkpt lat="48.28838" lon="6.73807">
        <ele>379</ele>
        <time>2025-12-19T15:12:08Z</time>
      </trkpt>
      <trkpt lat="48.28838" lon="6.738">
        <ele>379</ele>
        <time>2025-12-19T15:12:11Z</time>
      </trkpt>
      <trkpt lat="48.28836" lon="6.73785">
        <ele>378</ele>
        <time>2025-12-19T15:12:19Z</time>
      </trkpt>
      <trkpt lat="48.28838" lon="6.73779">
        <ele>378</ele>
        <time>2025-12-19T15:12:22Z</time>
      </trkpt>
      <trkpt lat="48.28838" lon="6.73763">
        <ele>378</ele>
        <time>2025-12-19T15:12:29Z</time>
      </trkpt>
      <trkpt lat="48.2884" lon="6.73757">
        <ele>378</ele>
        <time>2025-12-19T15:12:32Z</time>
      </trkpt>
      <trkpt lat="48.28839" lon="6.7375">
        <ele>378</ele>
        <time>2025-12-19T15:12:36Z</time>
      </trkpt>
      <trkpt lat="48.28843" lon="6.73736">
        <ele>378</ele>
        <time>2025-12-19T15:12:44Z</time>
      </trkpt>
      <trkpt lat="48.28844" lon="6.73728">
        <ele>378</ele>
        <time>2025-12-19T15:12:47Z</time>
      </trkpt>
      <trkpt lat="48.28846" lon="6.73722">
        <ele>378</ele>
        <time>2025-12-19T15:12:50Z</time>
      </trkpt>
      <trkpt lat="48.28849" lon="6.7369">
        <ele>377</ele>
        <time>2025-12-19T15:13:07Z</time>
      </trkpt>
      <trkpt lat="48.28845" lon="6.73675">
        <ele>377</ele>
        <time>2025-12-19T15:13:13Z</time>
      </trkpt>
      <trkpt lat="48.28847" lon="6.7366">
        <ele>377</ele>
        <time>2025-12-19T15:13:21Z</time>
      </trkpt>
      <trkpt lat="48.28843" lon="6.73639">
        <ele>377</ele>
        <time>2025-12-19T15:13:31Z</time>
      </trkpt>
      <trkpt lat="48.28844" lon="6.73632">
        <ele>377</ele>
        <time>2025-12-19T15:13:34Z</time>
      </trkpt>
      <trkpt lat="48.28841" lon="6.73617">
        <ele>377</ele>
        <time>2025-12-19T15:13:43Z</time>
      </trkpt>
      <trkpt lat="48.28841" lon="6.7361">
        <ele>377</ele>
        <time>2025-12-19T15:13:46Z</time>
      </trkpt>
      <trkpt lat="48.28843" lon="6.73604">
        <ele>377</ele>
        <time>2025-12-19T15:13:50Z</time>
      </trkpt>
      <trkpt lat="48.2884" lon="6.73588">
        <ele>377</ele>
        <time>2025-12-19T15:13:56Z</time>
      </trkpt>
      <trkpt lat="48.28842" lon="6.73573">
        <ele>377</ele>
        <time>2025-12-19T15:14:03Z</time>
      </trkpt>
      <trkpt lat="48.2884" lon="6.73566">
        <ele>376</ele>
        <time>2025-12-19T15:14:06Z</time>
      </trkpt>
      <trkpt lat="48.28841" lon="6.7355">
        <ele>376</ele>
        <time>2025-12-19T15:14:14Z</time>
      </trkpt>
      <trkpt lat="48.2884" lon="6.73542">
        <ele>376</ele>
        <time>2025-12-19T15:14:18Z</time>
      </trkpt>
      <trkpt lat="48.28843" lon="6.73513">
        <ele>376</ele>
        <time>2025-12-19T15:14:33Z</time>
      </trkpt>
      <trkpt lat="48.28845" lon="6.73507">
        <ele>376</ele>
        <time>2025-12-19T15:14:37Z</time>
      </trkpt>
      <trkpt lat="48.28843" lon="6.73496">
        <ele>375</ele>
        <time>2025-12-19T15:14:43Z</time>
      </trkpt>
      <trkpt lat="48.28841" lon="6.73474">
        <ele>376</ele>
        <time>2025-12-19T15:14:53Z</time>
      </trkpt>
      <trkpt lat="48.28835" lon="6.73449">
        <ele>375</ele>
        <time>2025-12-19T15:15:06Z</time>
      </trkpt>
      <trkpt lat="48.28833" lon="6.73419">
        <ele>375</ele>
        <time>2025-12-19T15:15:20Z</time>
      </trkpt>
      <trkpt lat="48.28834" lon="6.73412">
        <ele>375</ele>
        <time>2025-12-19T15:15:23Z</time>
      </trkpt>
      <trkpt lat="48.28834" lon="6.73404">
        <ele>375</ele>
        <time>2025-12-19T15:15:27Z</time>
      </trkpt>
      <trkpt lat="48.28838" lon="6.73382">
        <ele>375</ele>
        <time>2025-12-19T15:15:37Z</time>
      </trkpt>
      <trkpt lat="48.28838" lon="6.73375">
        <ele>375</ele>
        <time>2025-12-19T15:15:41Z</time>
      </trkpt>
      <trkpt lat="48.28844" lon="6.73364">
        <ele>375</ele>
        <time>2025-12-19T15:15:47Z</time>
      </trkpt>
      <trkpt lat="48.28843" lon="6.73357">
        <ele>374</ele>
        <time>2025-12-19T15:15:50Z</time>
      </trkpt>
      <trkpt lat="48.2885" lon="6.73347">
        <ele>374</ele>
        <time>2025-12-19T15:15:56Z</time>
      </trkpt>
      <trkpt lat="48.28877" lon="6.73291">
        <ele>372</ele>
        <time>2025-12-19T15:16:28Z</time>
      </trkpt>
      <trkpt lat="48.2889" lon="6.73267">
        <ele>372</ele>
        <time>2025-12-19T15:16:42Z</time>
      </trkpt>
      <trkpt lat="48.28893" lon="6.73263">
        <ele>372</ele>
        <time>2025-12-19T15:16:46Z</time>
      </trkpt>
      <trkpt lat="48.28894" lon="6.73254">
        <ele>372</ele>
        <time>2025-12-19T15:16:51Z</time>
      </trkpt>
      <trkpt lat="48.289" lon="6.73241">
        <ele>372</ele>
        <time>2025-12-19T15:16:57Z</time>
      </trkpt>
      <trkpt lat="48.28903" lon="6.73227">
        <ele>372</ele>
        <time>2025-12-19T15:17:04Z</time>
      </trkpt>
      <trkpt lat="48.28904" lon="6.7322">
        <ele>372</ele>
        <time>2025-12-19T15:17:08Z</time>
      </trkpt>
      <trkpt lat="48.28917" lon="6.73168">
        <ele>372</ele>
        <time>2025-12-19T15:17:34Z</time>
      </trkpt>
      <trkpt lat="48.28919" lon="6.73148">
        <ele>372</ele>
        <time>2025-12-19T15:17:43Z</time>
      </trkpt>
      <trkpt lat="48.28927" lon="6.73112">
        <ele>372</ele>
        <time>2025-12-19T15:18:01Z</time>
      </trkpt>
      <trkpt lat="48.2893" lon="6.73107">
        <ele>372</ele>
        <time>2025-12-19T15:18:04Z</time>
      </trkpt>
      <trkpt lat="48.28933" lon="6.73093">
        <ele>372</ele>
        <time>2025-12-19T15:18:11Z</time>
      </trkpt>
      <trkpt lat="48.28935" lon="6.73079">
        <ele>372</ele>
        <time>2025-12-19T15:18:18Z</time>
      </trkpt>
      <trkpt lat="48.28938" lon="6.73074">
        <ele>372</ele>
        <time>2025-12-19T15:18:21Z</time>
      </trkpt>
      <trkpt lat="48.2895" lon="6.73011">
        <ele>372</ele>
        <time>2025-12-19T15:18:54Z</time>
      </trkpt>
      <trkpt lat="48.28955" lon="6.72989">
        <ele>371</ele>
        <time>2025-12-19T15:19:10Z</time>
      </trkpt>
      <trkpt lat="48.28958" lon="6.72976">
        <ele>370</ele>
        <time>2025-12-19T15:19:16Z</time>
      </trkpt>
      <trkpt lat="48.28968" lon="6.72948">
        <ele>369</ele>
        <time>2025-12-19T15:19:31Z</time>
      </trkpt>
      <trkpt lat="48.28968" lon="6.72942">
        <ele>369</ele>
        <time>2025-12-19T15:19:35Z</time>
      </trkpt>
      <trkpt lat="48.28971" lon="6.72936">
        <ele>369</ele>
        <time>2025-12-19T15:19:38Z</time>
      </trkpt>
      <trkpt lat="48.28973" lon="6.72929">
        <ele>369</ele>
        <time>2025-12-19T15:19:42Z</time>
      </trkpt>
      <trkpt lat="48.28978" lon="6.72916">
        <ele>368</ele>
        <time>2025-12-19T15:19:49Z</time>
      </trkpt>
      <trkpt lat="48.28984" lon="6.72895">
        <ele>368</ele>
        <time>2025-12-19T15:19:59Z</time>
      </trkpt>
      <trkpt lat="48.28989" lon="6.72884">
        <ele>367</ele>
        <time>2025-12-19T15:20:05Z</time>
      </trkpt>
      <trkpt lat="48.28992" lon="6.7288">
        <ele>367</ele>
        <time>2025-12-19T15:20:09Z</time>
      </trkpt>
      <trkpt lat="48.28998" lon="6.7286">
        <ele>366</ele>
        <time>2025-12-19T15:20:19Z</time>
      </trkpt>
      <trkpt lat="48.29009" lon="6.72832">
        <ele>365</ele>
        <time>2025-12-19T15:20:35Z</time>
      </trkpt>
      <trkpt lat="48.2901" lon="6.72826">
        <ele>365</ele>
        <time>2025-12-19T15:20:38Z</time>
      </trkpt>
      <trkpt lat="48.29015" lon="6.72813">
        <ele>364</ele>
        <time>2025-12-19T15:20:45Z</time>
      </trkpt>
      <trkpt lat="48.29018" lon="6.728">
        <ele>364</ele>
        <time>2025-12-19T15:20:51Z</time>
      </trkpt>
      <trkpt lat="48.29021" lon="6.72793">
        <ele>364</ele>
        <time>2025-12-19T15:20:54Z</time>
      </trkpt>
      <trkpt lat="48.29022" lon="6.72786">
        <ele>363</ele>
        <time>2025-12-19T15:20:57Z</time>
      </trkpt>
      <trkpt lat="48.29026" lon="6.72773">
        <ele>363</ele>
        <time>2025-12-19T15:21:03Z</time>
      </trkpt>
      <trkpt lat="48.29028" lon="6.72767">
        <ele>362</ele>
        <time>2025-12-19T15:21:06Z</time>
      </trkpt>
      <trkpt lat="48.29028" lon="6.7276">
        <ele>362</ele>
        <time>2025-12-19T15:21:09Z</time>
      </trkpt>
      <trkpt lat="48.29026" lon="6.72753">
        <ele>362</ele>
        <time>2025-12-19T15:21:16Z</time>
      </trkpt>
      <trkpt lat="48.29016" lon="6.72743">
        <ele>361</ele>
        <time>2025-12-19T15:21:20Z</time>
      </trkpt>
      <trkpt lat="48.29014" lon="6.72736">
        <ele>361</ele>
        <time>2025-12-19T15:21:23Z</time>
      </trkpt>
      <trkpt lat="48.29009" lon="6.72728">
        <ele>361</ele>
        <time>2025-12-19T15:21:28Z</time>
      </trkpt>
      <trkpt lat="48.29006" lon="6.72718">
        <ele>361</ele>
        <time>2025-12-19T15:21:33Z</time>
      </trkpt>
      <trkpt lat="48.28999" lon="6.72707">
        <ele>360</ele>
        <time>2025-12-19T15:21:40Z</time>
      </trkpt>
      <trkpt lat="48.28995" lon="6.72697">
        <ele>360</ele>
        <time>2025-12-19T15:21:45Z</time>
      </trkpt>
      <trkpt lat="48.28981" lon="6.72675">
        <ele>360</ele>
        <time>2025-12-19T15:21:58Z</time>
      </trkpt>
      <trkpt lat="48.28981" lon="6.72669">
        <ele>360</ele>
        <time>2025-12-19T15:22:01Z</time>
      </trkpt>
      <trkpt lat="48.28977" lon="6.72664">
        <ele>360</ele>
        <time>2025-12-19T15:22:06Z</time>
      </trkpt>
      <trkpt lat="48.28972" lon="6.72665">
        <ele>360</ele>
        <time>2025-12-19T15:22:11Z</time>
      </trkpt>
      <trkpt lat="48.28981" lon="6.72669">
        <ele>360</ele>
        <time>2025-12-19T15:22:22Z</time>
      </trkpt>
      <trkpt lat="48.28998" lon="6.72685">
        <ele>359</ele>
        <time>2025-12-19T15:22:36Z</time>
      </trkpt>
      <trkpt lat="48.29001" lon="6.72691">
        <ele>360</ele>
        <time>2025-12-19T15:22:45Z</time>
      </trkpt>
    </trkseg>
  </trk>
</gpx>